<?xml version="1.0" encoding="UTF-8" standalone="no" ?>
<gpx xmlns="http://www.topografix.com/GPX/1/1" xmlns:xsi="http://www.w3.org/2001/XMLSchema-instance" xsi:schemaLocation="http://www.topografix.com/GPX/1/1 http://www.topografix.com/GPX/1/1/gpx.xsd" version="1.1" creator="VisuGPX - https://www.visugpx.com">
  <metadata>
    <name>Noyarey - La Buffe</name>
    <desc><![CDATA[Montée cool, descente technique et ludique]]></desc>
  </metadata>
  <trk>
    <name><![CDATA[2017-10-12 09:01 noyarey la buffe ]]></name>
    <desc><![CDATA[<p>Heure de départ: 10/12/2017 09:01<br/>Heure d'arrivée: 10/12/2017 12:59<br/>Distance: 26,6 km (03:58)<br/>Temps déplacement: 03:08<br/>Vitesse moyenne: 6,72 km/h<br/>Vitesse moyenne mouv.: 8,48 km/h<br/>Vitesse Max.: 37,44 km/h<br/>Altitude minimale: 191 m<br/>Altitude maximale: 1616 m<br/>Vitesse de montée: 800 m/h<br/>Vitesse de descente: -1021,4 m/h<br/>Gain d'altitude: 1757 m<br/>Perte d'altitude: -1787 m<br/>Temps de montée: 02:11<br/>Temps de descente: 01:44<br/></p><hr align="center" width="480" style="height: 2px; width: 517px"/>]]></desc>
    <trkseg>
      <trkpt lat="45.24412" lon="5.63138">
        <ele>222.05</ele>
        <time>2017-10-12T07:01:25Z</time>
      </trkpt>
      <trkpt lat="45.24429" lon="5.63132">
        <ele>219.97</ele>
        <time>2017-10-12T07:01:43Z</time>
      </trkpt>
      <trkpt lat="45.24448" lon="5.63132">
        <ele>220.04</ele>
        <time>2017-10-12T07:01:50Z</time>
      </trkpt>
      <trkpt lat="45.24466" lon="5.63125">
        <ele>216.78</ele>
        <time>2017-10-12T07:01:57Z</time>
      </trkpt>
      <trkpt lat="45.24484" lon="5.63116">
        <ele>215.23</ele>
        <time>2017-10-12T07:02:03Z</time>
      </trkpt>
      <trkpt lat="45.24503" lon="5.63106">
        <ele>218.69</ele>
        <time>2017-10-12T07:02:10Z</time>
      </trkpt>
      <trkpt lat="45.2452" lon="5.63092">
        <ele>220.95</ele>
        <time>2017-10-12T07:02:16Z</time>
      </trkpt>
      <trkpt lat="45.24537" lon="5.63076">
        <ele>220.07</ele>
        <time>2017-10-12T07:02:22Z</time>
      </trkpt>
      <trkpt lat="45.2455" lon="5.63057">
        <ele>223.04</ele>
        <time>2017-10-12T07:02:28Z</time>
      </trkpt>
      <trkpt lat="45.24559" lon="5.63034">
        <ele>223.05</ele>
        <time>2017-10-12T07:02:34Z</time>
      </trkpt>
      <trkpt lat="45.24569" lon="5.63011">
        <ele>225.96</ele>
        <time>2017-10-12T07:02:41Z</time>
      </trkpt>
      <trkpt lat="45.24578" lon="5.62986">
        <ele>228.82</ele>
        <time>2017-10-12T07:02:48Z</time>
      </trkpt>
      <trkpt lat="45.24587" lon="5.62962">
        <ele>232.32</ele>
        <time>2017-10-12T07:02:55Z</time>
      </trkpt>
      <trkpt lat="45.24595" lon="5.62936">
        <ele>229.93</ele>
        <time>2017-10-12T07:03:01Z</time>
      </trkpt>
      <trkpt lat="45.24605" lon="5.62913">
        <ele>231.28</ele>
        <time>2017-10-12T07:03:07Z</time>
      </trkpt>
      <trkpt lat="45.24617" lon="5.62888">
        <ele>236.04</ele>
        <time>2017-10-12T07:03:14Z</time>
      </trkpt>
      <trkpt lat="45.24627" lon="5.62865">
        <ele>237.67</ele>
        <time>2017-10-12T07:03:20Z</time>
      </trkpt>
      <trkpt lat="45.24635" lon="5.62837">
        <ele>233.04</ele>
        <time>2017-10-12T07:03:26Z</time>
      </trkpt>
      <trkpt lat="45.24643" lon="5.62814">
        <ele>234.05</ele>
        <time>2017-10-12T07:03:31Z</time>
      </trkpt>
      <trkpt lat="45.24649" lon="5.62788">
        <ele>231.12</ele>
        <time>2017-10-12T07:03:36Z</time>
      </trkpt>
      <trkpt lat="45.2466" lon="5.62766">
        <ele>232.26</ele>
        <time>2017-10-12T07:03:41Z</time>
      </trkpt>
      <trkpt lat="45.24677" lon="5.62747">
        <ele>232.06</ele>
        <time>2017-10-12T07:03:47Z</time>
      </trkpt>
      <trkpt lat="45.24693" lon="5.62732">
        <ele>230.08</ele>
        <time>2017-10-12T07:03:53Z</time>
      </trkpt>
      <trkpt lat="45.24713" lon="5.6272">
        <ele>231.5</ele>
        <time>2017-10-12T07:03:59Z</time>
      </trkpt>
      <trkpt lat="45.24733" lon="5.62711">
        <ele>231.96</ele>
        <time>2017-10-12T07:04:05Z</time>
      </trkpt>
      <trkpt lat="45.24753" lon="5.62708">
        <ele>230.87</ele>
        <time>2017-10-12T07:04:10Z</time>
      </trkpt>
      <trkpt lat="45.24771" lon="5.627">
        <ele>230.12</ele>
        <time>2017-10-12T07:04:15Z</time>
      </trkpt>
      <trkpt lat="45.24772" lon="5.62674">
        <ele>232.43</ele>
        <time>2017-10-12T07:04:21Z</time>
      </trkpt>
      <trkpt lat="45.24767" lon="5.62649">
        <ele>233.77</ele>
        <time>2017-10-12T07:04:28Z</time>
      </trkpt>
      <trkpt lat="45.2476" lon="5.62625">
        <ele>238.35</ele>
        <time>2017-10-12T07:04:35Z</time>
      </trkpt>
      <trkpt lat="45.24752" lon="5.62598">
        <ele>242.63</ele>
        <time>2017-10-12T07:04:41Z</time>
      </trkpt>
      <trkpt lat="45.24745" lon="5.62575">
        <ele>241.85</ele>
        <time>2017-10-12T07:04:47Z</time>
      </trkpt>
      <trkpt lat="45.24737" lon="5.62549">
        <ele>242.74</ele>
        <time>2017-10-12T07:04:53Z</time>
      </trkpt>
      <trkpt lat="45.24719" lon="5.62549">
        <ele>244.02</ele>
        <time>2017-10-12T07:05:02Z</time>
      </trkpt>
      <trkpt lat="45.24701" lon="5.6256">
        <ele>241.44</ele>
        <time>2017-10-12T07:05:09Z</time>
      </trkpt>
      <trkpt lat="45.24683" lon="5.62563">
        <ele>247.41</ele>
        <time>2017-10-12T07:05:19Z</time>
      </trkpt>
      <trkpt lat="45.24666" lon="5.62575">
        <ele>251.01</ele>
        <time>2017-10-12T07:05:44Z</time>
      </trkpt>
      <trkpt lat="45.24656" lon="5.62552">
        <ele>253.01</ele>
        <time>2017-10-12T07:05:53Z</time>
      </trkpt>
      <trkpt lat="45.24651" lon="5.62528">
        <ele>252.69</ele>
        <time>2017-10-12T07:06:01Z</time>
      </trkpt>
      <trkpt lat="45.24646" lon="5.62502">
        <ele>258.3</ele>
        <time>2017-10-12T07:06:11Z</time>
      </trkpt>
      <trkpt lat="45.24656" lon="5.62478">
        <ele>261.43</ele>
        <time>2017-10-12T07:06:20Z</time>
      </trkpt>
      <trkpt lat="45.24665" lon="5.62455">
        <ele>267.09</ele>
        <time>2017-10-12T07:06:29Z</time>
      </trkpt>
      <trkpt lat="45.24678" lon="5.62436">
        <ele>268.06</ele>
        <time>2017-10-12T07:06:37Z</time>
      </trkpt>
      <trkpt lat="45.2469" lon="5.62416">
        <ele>275.65</ele>
        <time>2017-10-12T07:06:45Z</time>
      </trkpt>
      <trkpt lat="45.24705" lon="5.62397">
        <ele>275.36</ele>
        <time>2017-10-12T07:06:52Z</time>
      </trkpt>
      <trkpt lat="45.24709" lon="5.62372">
        <ele>274.02</ele>
        <time>2017-10-12T07:07:01Z</time>
      </trkpt>
      <trkpt lat="45.24702" lon="5.62345">
        <ele>271.98</ele>
        <time>2017-10-12T07:07:09Z</time>
      </trkpt>
      <trkpt lat="45.24695" lon="5.6232">
        <ele>274.04</ele>
        <time>2017-10-12T07:07:20Z</time>
      </trkpt>
      <trkpt lat="45.24689" lon="5.62295">
        <ele>273.05</ele>
        <time>2017-10-12T07:07:31Z</time>
      </trkpt>
      <trkpt lat="45.24689" lon="5.62267">
        <ele>280.87</ele>
        <time>2017-10-12T07:07:43Z</time>
      </trkpt>
      <trkpt lat="45.24697" lon="5.62243">
        <ele>288.72</ele>
        <time>2017-10-12T07:07:54Z</time>
      </trkpt>
      <trkpt lat="45.24712" lon="5.62226">
        <ele>293.05</ele>
        <time>2017-10-12T07:08:04Z</time>
      </trkpt>
      <trkpt lat="45.24727" lon="5.62209">
        <ele>292.76</ele>
        <time>2017-10-12T07:08:14Z</time>
      </trkpt>
      <trkpt lat="45.24739" lon="5.62188">
        <ele>293.57</ele>
        <time>2017-10-12T07:08:24Z</time>
      </trkpt>
      <trkpt lat="45.24754" lon="5.62171">
        <ele>295.93</ele>
        <time>2017-10-12T07:08:33Z</time>
      </trkpt>
      <trkpt lat="45.24765" lon="5.62148">
        <ele>298.05</ele>
        <time>2017-10-12T07:08:42Z</time>
      </trkpt>
      <trkpt lat="45.24765" lon="5.62121">
        <ele>287.58</ele>
        <time>2017-10-12T07:08:53Z</time>
      </trkpt>
      <trkpt lat="45.24761" lon="5.62096">
        <ele>301.81</ele>
        <time>2017-10-12T07:09:04Z</time>
      </trkpt>
      <trkpt lat="45.24757" lon="5.62068">
        <ele>308.94</ele>
        <time>2017-10-12T07:09:13Z</time>
      </trkpt>
      <trkpt lat="45.24754" lon="5.62041">
        <ele>310.3</ele>
        <time>2017-10-12T07:09:20Z</time>
      </trkpt>
      <trkpt lat="45.2477" lon="5.62029">
        <ele>307.75</ele>
        <time>2017-10-12T07:09:29Z</time>
      </trkpt>
      <trkpt lat="45.24782" lon="5.62052">
        <ele>307.65</ele>
        <time>2017-10-12T07:09:38Z</time>
      </trkpt>
      <trkpt lat="45.24792" lon="5.62074">
        <ele>304.05</ele>
        <time>2017-10-12T07:09:47Z</time>
      </trkpt>
      <trkpt lat="45.248" lon="5.62097">
        <ele>309.04</ele>
        <time>2017-10-12T07:09:56Z</time>
      </trkpt>
      <trkpt lat="45.24805" lon="5.62122">
        <ele>314.08</ele>
        <time>2017-10-12T07:10:05Z</time>
      </trkpt>
      <trkpt lat="45.24818" lon="5.62142">
        <ele>316.67</ele>
        <time>2017-10-12T07:10:15Z</time>
      </trkpt>
      <trkpt lat="45.24831" lon="5.62121">
        <ele>324.6</ele>
        <time>2017-10-12T07:10:36Z</time>
      </trkpt>
      <trkpt lat="45.24848" lon="5.62112">
        <ele>324.98</ele>
        <time>2017-10-12T07:10:50Z</time>
      </trkpt>
      <trkpt lat="45.24864" lon="5.62098">
        <ele>328.65</ele>
        <time>2017-10-12T07:11:00Z</time>
      </trkpt>
      <trkpt lat="45.24882" lon="5.62088">
        <ele>328.03</ele>
        <time>2017-10-12T07:11:11Z</time>
      </trkpt>
      <trkpt lat="45.24901" lon="5.62084">
        <ele>326.32</ele>
        <time>2017-10-12T07:11:22Z</time>
      </trkpt>
      <trkpt lat="45.24919" lon="5.62084">
        <ele>334.97</ele>
        <time>2017-10-12T07:11:34Z</time>
      </trkpt>
      <trkpt lat="45.24938" lon="5.62084">
        <ele>345.99</ele>
        <time>2017-10-12T07:13:26Z</time>
      </trkpt>
      <trkpt lat="45.24958" lon="5.62094">
        <ele>350.65</ele>
        <time>2017-10-12T07:13:38Z</time>
      </trkpt>
      <trkpt lat="45.24978" lon="5.62096">
        <ele>353.31</ele>
        <time>2017-10-12T07:13:50Z</time>
      </trkpt>
      <trkpt lat="45.24996" lon="5.62091">
        <ele>353.04</ele>
        <time>2017-10-12T07:14:02Z</time>
      </trkpt>
      <trkpt lat="45.25015" lon="5.62094">
        <ele>350.43</ele>
        <time>2017-10-12T07:14:10Z</time>
      </trkpt>
      <trkpt lat="45.25034" lon="5.62095">
        <ele>348.11</ele>
        <time>2017-10-12T07:14:20Z</time>
      </trkpt>
      <trkpt lat="45.25054" lon="5.62094">
        <ele>347.74</ele>
        <time>2017-10-12T07:14:28Z</time>
      </trkpt>
      <trkpt lat="45.25072" lon="5.62092">
        <ele>349.92</ele>
        <time>2017-10-12T07:14:37Z</time>
      </trkpt>
      <trkpt lat="45.25091" lon="5.62083">
        <ele>353.16</ele>
        <time>2017-10-12T07:14:47Z</time>
      </trkpt>
      <trkpt lat="45.25107" lon="5.62069">
        <ele>355.07</ele>
        <time>2017-10-12T07:14:57Z</time>
      </trkpt>
      <trkpt lat="45.25122" lon="5.62055">
        <ele>351.92</ele>
        <time>2017-10-12T07:15:07Z</time>
      </trkpt>
      <trkpt lat="45.25139" lon="5.62041">
        <ele>354.12</ele>
        <time>2017-10-12T07:15:18Z</time>
      </trkpt>
      <trkpt lat="45.25156" lon="5.62032">
        <ele>356.04</ele>
        <time>2017-10-12T07:15:28Z</time>
      </trkpt>
      <trkpt lat="45.25173" lon="5.62027">
        <ele>358.68</ele>
        <time>2017-10-12T07:15:38Z</time>
      </trkpt>
      <trkpt lat="45.2519" lon="5.62015">
        <ele>361.86</ele>
        <time>2017-10-12T07:15:48Z</time>
      </trkpt>
      <trkpt lat="45.25206" lon="5.62001">
        <ele>362.09</ele>
        <time>2017-10-12T07:15:56Z</time>
      </trkpt>
      <trkpt lat="45.25223" lon="5.61991">
        <ele>368.5</ele>
        <time>2017-10-12T07:16:04Z</time>
      </trkpt>
      <trkpt lat="45.25241" lon="5.61984">
        <ele>369.29</ele>
        <time>2017-10-12T07:16:12Z</time>
      </trkpt>
      <trkpt lat="45.25258" lon="5.61973">
        <ele>376.59</ele>
        <time>2017-10-12T07:16:20Z</time>
      </trkpt>
      <trkpt lat="45.25239" lon="5.61971">
        <ele>371.77</ele>
        <time>2017-10-12T07:16:50Z</time>
      </trkpt>
      <trkpt lat="45.2522" lon="5.61972">
        <ele>373.73</ele>
        <time>2017-10-12T07:16:58Z</time>
      </trkpt>
      <trkpt lat="45.25202" lon="5.6198">
        <ele>380.89</ele>
        <time>2017-10-12T07:17:09Z</time>
      </trkpt>
      <trkpt lat="45.25183" lon="5.61984">
        <ele>379.91</ele>
        <time>2017-10-12T07:17:19Z</time>
      </trkpt>
      <trkpt lat="45.25166" lon="5.61997">
        <ele>385.8</ele>
        <time>2017-10-12T07:17:28Z</time>
      </trkpt>
      <trkpt lat="45.25149" lon="5.62006">
        <ele>394.64</ele>
        <time>2017-10-12T07:17:38Z</time>
      </trkpt>
      <trkpt lat="45.2513" lon="5.62009">
        <ele>396.85</ele>
        <time>2017-10-12T07:17:46Z</time>
      </trkpt>
      <trkpt lat="45.25111" lon="5.6201">
        <ele>398.93</ele>
        <time>2017-10-12T07:17:56Z</time>
      </trkpt>
      <trkpt lat="45.25093" lon="5.62001">
        <ele>406.62</ele>
        <time>2017-10-12T07:18:06Z</time>
      </trkpt>
      <trkpt lat="45.25076" lon="5.61992">
        <ele>407.73</ele>
        <time>2017-10-12T07:18:15Z</time>
      </trkpt>
      <trkpt lat="45.25056" lon="5.61986">
        <ele>410.26</ele>
        <time>2017-10-12T07:18:26Z</time>
      </trkpt>
      <trkpt lat="45.25039" lon="5.61973">
        <ele>405.37</ele>
        <time>2017-10-12T07:18:35Z</time>
      </trkpt>
      <trkpt lat="45.2502" lon="5.61969">
        <ele>404.31</ele>
        <time>2017-10-12T07:18:46Z</time>
      </trkpt>
      <trkpt lat="45.25001" lon="5.61958">
        <ele>401.91</ele>
        <time>2017-10-12T07:18:56Z</time>
      </trkpt>
      <trkpt lat="45.24985" lon="5.61946">
        <ele>403.7</ele>
        <time>2017-10-12T07:19:04Z</time>
      </trkpt>
      <trkpt lat="45.24969" lon="5.6193">
        <ele>403.12</ele>
        <time>2017-10-12T07:19:12Z</time>
      </trkpt>
      <trkpt lat="45.24951" lon="5.61923">
        <ele>413.84</ele>
        <time>2017-10-12T07:19:22Z</time>
      </trkpt>
      <trkpt lat="45.24936" lon="5.61908">
        <ele>419.05</ele>
        <time>2017-10-12T07:19:35Z</time>
      </trkpt>
      <trkpt lat="45.24952" lon="5.61893">
        <ele>426.91</ele>
        <time>2017-10-12T07:19:49Z</time>
      </trkpt>
      <trkpt lat="45.24971" lon="5.61896">
        <ele>429.28</ele>
        <time>2017-10-12T07:20:00Z</time>
      </trkpt>
      <trkpt lat="45.2499" lon="5.61899">
        <ele>430.16</ele>
        <time>2017-10-12T07:20:13Z</time>
      </trkpt>
      <trkpt lat="45.25008" lon="5.61898">
        <ele>427.44</ele>
        <time>2017-10-12T07:20:23Z</time>
      </trkpt>
      <trkpt lat="45.25026" lon="5.61902">
        <ele>432.71</ele>
        <time>2017-10-12T07:20:32Z</time>
      </trkpt>
      <trkpt lat="45.25046" lon="5.61901">
        <ele>429.42</ele>
        <time>2017-10-12T07:20:41Z</time>
      </trkpt>
      <trkpt lat="45.25065" lon="5.61893">
        <ele>432.08</ele>
        <time>2017-10-12T07:20:51Z</time>
      </trkpt>
      <trkpt lat="45.25082" lon="5.6188">
        <ele>432.71</ele>
        <time>2017-10-12T07:21:02Z</time>
      </trkpt>
      <trkpt lat="45.25099" lon="5.61869">
        <ele>432.01</ele>
        <time>2017-10-12T07:21:14Z</time>
      </trkpt>
      <trkpt lat="45.25117" lon="5.61859">
        <ele>433.62</ele>
        <time>2017-10-12T07:21:24Z</time>
      </trkpt>
      <trkpt lat="45.25099" lon="5.61865">
        <ele>440.56</ele>
        <time>2017-10-12T07:21:51Z</time>
      </trkpt>
      <trkpt lat="45.25083" lon="5.61879">
        <ele>444.21</ele>
        <time>2017-10-12T07:22:00Z</time>
      </trkpt>
      <trkpt lat="45.25066" lon="5.61868">
        <ele>432.94</ele>
        <time>2017-10-12T07:22:13Z</time>
      </trkpt>
      <trkpt lat="45.25047" lon="5.61868">
        <ele>446.85</ele>
        <time>2017-10-12T07:22:24Z</time>
      </trkpt>
      <trkpt lat="45.25028" lon="5.61856">
        <ele>449.01</ele>
        <time>2017-10-12T07:22:36Z</time>
      </trkpt>
      <trkpt lat="45.25009" lon="5.61849">
        <ele>452.86</ele>
        <time>2017-10-12T07:22:47Z</time>
      </trkpt>
      <trkpt lat="45.24992" lon="5.61834">
        <ele>459.42</ele>
        <time>2017-10-12T07:22:56Z</time>
      </trkpt>
      <trkpt lat="45.24981" lon="5.61813">
        <ele>462.55</ele>
        <time>2017-10-12T07:23:06Z</time>
      </trkpt>
      <trkpt lat="45.24972" lon="5.61785">
        <ele>466.96</ele>
        <time>2017-10-12T07:23:18Z</time>
      </trkpt>
      <trkpt lat="45.24963" lon="5.61761">
        <ele>467.26</ele>
        <time>2017-10-12T07:23:30Z</time>
      </trkpt>
      <trkpt lat="45.24953" lon="5.61739">
        <ele>466.44</ele>
        <time>2017-10-12T07:23:39Z</time>
      </trkpt>
      <trkpt lat="45.24938" lon="5.61723">
        <ele>471.97</ele>
        <time>2017-10-12T07:23:51Z</time>
      </trkpt>
      <trkpt lat="45.2492" lon="5.61715">
        <ele>473.26</ele>
        <time>2017-10-12T07:24:01Z</time>
      </trkpt>
      <trkpt lat="45.24901" lon="5.61713">
        <ele>475.75</ele>
        <time>2017-10-12T07:24:12Z</time>
      </trkpt>
      <trkpt lat="45.24885" lon="5.61725">
        <ele>478.04</ele>
        <time>2017-10-12T07:24:25Z</time>
      </trkpt>
      <trkpt lat="45.24867" lon="5.6172">
        <ele>482.05</ele>
        <time>2017-10-12T07:24:36Z</time>
      </trkpt>
      <trkpt lat="45.24854" lon="5.61701">
        <ele>487.87</ele>
        <time>2017-10-12T07:24:48Z</time>
      </trkpt>
      <trkpt lat="45.24843" lon="5.6168">
        <ele>493.41</ele>
        <time>2017-10-12T07:24:59Z</time>
      </trkpt>
      <trkpt lat="45.24832" lon="5.61659">
        <ele>496.15</ele>
        <time>2017-10-12T07:25:11Z</time>
      </trkpt>
      <trkpt lat="45.24824" lon="5.61636">
        <ele>497.17</ele>
        <time>2017-10-12T07:25:23Z</time>
      </trkpt>
      <trkpt lat="45.24816" lon="5.61613">
        <ele>501.35</ele>
        <time>2017-10-12T07:25:34Z</time>
      </trkpt>
      <trkpt lat="45.2481" lon="5.61587">
        <ele>506.87</ele>
        <time>2017-10-12T07:25:45Z</time>
      </trkpt>
      <trkpt lat="45.24807" lon="5.61559">
        <ele>510.04</ele>
        <time>2017-10-12T07:25:58Z</time>
      </trkpt>
      <trkpt lat="45.24806" lon="5.61533">
        <ele>513.13</ele>
        <time>2017-10-12T07:26:11Z</time>
      </trkpt>
      <trkpt lat="45.24808" lon="5.61505">
        <ele>500.82</ele>
        <time>2017-10-12T07:26:19Z</time>
      </trkpt>
      <trkpt lat="45.24812" lon="5.61478">
        <ele>494.65</ele>
        <time>2017-10-12T07:26:29Z</time>
      </trkpt>
      <trkpt lat="45.24817" lon="5.61451">
        <ele>494.14</ele>
        <time>2017-10-12T07:26:40Z</time>
      </trkpt>
      <trkpt lat="45.24823" lon="5.61427">
        <ele>497.99</ele>
        <time>2017-10-12T07:26:50Z</time>
      </trkpt>
      <trkpt lat="45.24831" lon="5.61401">
        <ele>501.74</ele>
        <time>2017-10-12T07:26:57Z</time>
      </trkpt>
      <trkpt lat="45.2484" lon="5.61378">
        <ele>497.15</ele>
        <time>2017-10-12T07:27:07Z</time>
      </trkpt>
      <trkpt lat="45.2484" lon="5.61352">
        <ele>504.65</ele>
        <time>2017-10-12T07:27:19Z</time>
      </trkpt>
      <trkpt lat="45.2485" lon="5.61326">
        <ele>509.05</ele>
        <time>2017-10-12T07:27:29Z</time>
      </trkpt>
      <trkpt lat="45.24858" lon="5.61302">
        <ele>511.01</ele>
        <time>2017-10-12T07:27:37Z</time>
      </trkpt>
      <trkpt lat="45.24852" lon="5.61277">
        <ele>522.59</ele>
        <time>2017-10-12T07:27:48Z</time>
      </trkpt>
      <trkpt lat="45.24848" lon="5.6125">
        <ele>528.95</ele>
        <time>2017-10-12T07:27:59Z</time>
      </trkpt>
      <trkpt lat="45.24847" lon="5.61222">
        <ele>535.71</ele>
        <time>2017-10-12T07:28:10Z</time>
      </trkpt>
      <trkpt lat="45.24848" lon="5.61197">
        <ele>534.19</ele>
        <time>2017-10-12T07:28:19Z</time>
      </trkpt>
      <trkpt lat="45.24845" lon="5.6117">
        <ele>536.02</ele>
        <time>2017-10-12T07:28:30Z</time>
      </trkpt>
      <trkpt lat="45.24845" lon="5.61142">
        <ele>539.3</ele>
        <time>2017-10-12T07:28:42Z</time>
      </trkpt>
      <trkpt lat="45.24842" lon="5.61114">
        <ele>540.05</ele>
        <time>2017-10-12T07:28:52Z</time>
      </trkpt>
      <trkpt lat="45.24838" lon="5.61088">
        <ele>547.64</ele>
        <time>2017-10-12T07:29:04Z</time>
      </trkpt>
      <trkpt lat="45.24835" lon="5.61058">
        <ele>549.95</ele>
        <time>2017-10-12T07:29:13Z</time>
      </trkpt>
      <trkpt lat="45.2483" lon="5.61032">
        <ele>559.64</ele>
        <time>2017-10-12T07:29:25Z</time>
      </trkpt>
      <trkpt lat="45.24827" lon="5.61005">
        <ele>563.67</ele>
        <time>2017-10-12T07:29:36Z</time>
      </trkpt>
      <trkpt lat="45.24824" lon="5.60977">
        <ele>566.96</ele>
        <time>2017-10-12T07:29:48Z</time>
      </trkpt>
      <trkpt lat="45.24819" lon="5.60951">
        <ele>574.04</ele>
        <time>2017-10-12T07:30:04Z</time>
      </trkpt>
      <trkpt lat="45.24815" lon="5.60924">
        <ele>579.71</ele>
        <time>2017-10-12T07:30:16Z</time>
      </trkpt>
      <trkpt lat="45.24814" lon="5.60896">
        <ele>582.04</ele>
        <time>2017-10-12T07:30:27Z</time>
      </trkpt>
      <trkpt lat="45.24811" lon="5.60869">
        <ele>585.24</ele>
        <time>2017-10-12T07:30:37Z</time>
      </trkpt>
      <trkpt lat="45.24813" lon="5.60844">
        <ele>591.65</ele>
        <time>2017-10-12T07:30:48Z</time>
      </trkpt>
      <trkpt lat="45.24811" lon="5.60817">
        <ele>590.99</ele>
        <time>2017-10-12T07:30:57Z</time>
      </trkpt>
      <trkpt lat="45.24808" lon="5.60791">
        <ele>591.57</ele>
        <time>2017-10-12T07:31:06Z</time>
      </trkpt>
      <trkpt lat="45.24801" lon="5.60765">
        <ele>591.2</ele>
        <time>2017-10-12T07:31:15Z</time>
      </trkpt>
      <trkpt lat="45.24796" lon="5.60738">
        <ele>592.27</ele>
        <time>2017-10-12T07:31:25Z</time>
      </trkpt>
      <trkpt lat="45.24789" lon="5.60714">
        <ele>597.06</ele>
        <time>2017-10-12T07:31:37Z</time>
      </trkpt>
      <trkpt lat="45.24777" lon="5.60734">
        <ele>584.86</ele>
        <time>2017-10-12T07:31:58Z</time>
      </trkpt>
      <trkpt lat="45.24759" lon="5.60748">
        <ele>587.38</ele>
        <time>2017-10-12T07:32:07Z</time>
      </trkpt>
      <trkpt lat="45.24741" lon="5.60755">
        <ele>586.08</ele>
        <time>2017-10-12T07:32:16Z</time>
      </trkpt>
      <trkpt lat="45.24722" lon="5.60761">
        <ele>585.63</ele>
        <time>2017-10-12T07:32:25Z</time>
      </trkpt>
      <trkpt lat="45.24703" lon="5.60753">
        <ele>587.05</ele>
        <time>2017-10-12T07:32:35Z</time>
      </trkpt>
      <trkpt lat="45.24685" lon="5.60749">
        <ele>584.24</ele>
        <time>2017-10-12T07:32:45Z</time>
      </trkpt>
      <trkpt lat="45.24667" lon="5.60741">
        <ele>587.02</ele>
        <time>2017-10-12T07:32:52Z</time>
      </trkpt>
      <trkpt lat="45.2465" lon="5.60755">
        <ele>592.02</ele>
        <time>2017-10-12T07:33:06Z</time>
      </trkpt>
      <trkpt lat="45.24634" lon="5.60771">
        <ele>591.94</ele>
        <time>2017-10-12T07:33:16Z</time>
      </trkpt>
      <trkpt lat="45.24615" lon="5.60764">
        <ele>596.46</ele>
        <time>2017-10-12T07:33:26Z</time>
      </trkpt>
      <trkpt lat="45.24599" lon="5.6075">
        <ele>598.02</ele>
        <time>2017-10-12T07:33:38Z</time>
      </trkpt>
      <trkpt lat="45.24593" lon="5.60725">
        <ele>601.95</ele>
        <time>2017-10-12T07:33:49Z</time>
      </trkpt>
      <trkpt lat="45.2458" lon="5.60705">
        <ele>603.12</ele>
        <time>2017-10-12T07:34:03Z</time>
      </trkpt>
      <trkpt lat="45.24568" lon="5.60684">
        <ele>604.04</ele>
        <time>2017-10-12T07:34:15Z</time>
      </trkpt>
      <trkpt lat="45.24555" lon="5.60664">
        <ele>605.28</ele>
        <time>2017-10-12T07:34:27Z</time>
      </trkpt>
      <trkpt lat="45.24544" lon="5.60644">
        <ele>606.31</ele>
        <time>2017-10-12T07:34:40Z</time>
      </trkpt>
      <trkpt lat="45.24529" lon="5.60627">
        <ele>613.11</ele>
        <time>2017-10-12T07:34:53Z</time>
      </trkpt>
      <trkpt lat="45.24515" lon="5.6061">
        <ele>615.98</ele>
        <time>2017-10-12T07:35:06Z</time>
      </trkpt>
      <trkpt lat="45.24499" lon="5.60592">
        <ele>621.27</ele>
        <time>2017-10-12T07:35:19Z</time>
      </trkpt>
      <trkpt lat="45.24483" lon="5.6058">
        <ele>625.67</ele>
        <time>2017-10-12T07:35:30Z</time>
      </trkpt>
      <trkpt lat="45.24465" lon="5.6058">
        <ele>627.67</ele>
        <time>2017-10-12T07:35:47Z</time>
      </trkpt>
      <trkpt lat="45.24447" lon="5.60593">
        <ele>632.81</ele>
        <time>2017-10-12T07:36:00Z</time>
      </trkpt>
      <trkpt lat="45.2443" lon="5.60602">
        <ele>638.74</ele>
        <time>2017-10-12T07:36:08Z</time>
      </trkpt>
      <trkpt lat="45.24412" lon="5.60608">
        <ele>640.25</ele>
        <time>2017-10-12T07:36:16Z</time>
      </trkpt>
      <trkpt lat="45.24397" lon="5.60623">
        <ele>638.01</ele>
        <time>2017-10-12T07:36:27Z</time>
      </trkpt>
      <trkpt lat="45.24382" lon="5.60641">
        <ele>636.73</ele>
        <time>2017-10-12T07:36:36Z</time>
      </trkpt>
      <trkpt lat="45.24367" lon="5.60654">
        <ele>636.75</ele>
        <time>2017-10-12T07:36:44Z</time>
      </trkpt>
      <trkpt lat="45.24349" lon="5.60663">
        <ele>633.75</ele>
        <time>2017-10-12T07:38:53Z</time>
      </trkpt>
      <trkpt lat="45.24337" lon="5.60685">
        <ele>634.96</ele>
        <time>2017-10-12T07:39:05Z</time>
      </trkpt>
      <trkpt lat="45.24331" lon="5.60712">
        <ele>638.01</ele>
        <time>2017-10-12T07:39:12Z</time>
      </trkpt>
      <trkpt lat="45.24324" lon="5.60742">
        <ele>619.96</ele>
        <time>2017-10-12T07:39:19Z</time>
      </trkpt>
      <trkpt lat="45.24319" lon="5.60769">
        <ele>623.08</ele>
        <time>2017-10-12T07:39:24Z</time>
      </trkpt>
      <trkpt lat="45.24309" lon="5.60792">
        <ele>631.49</ele>
        <time>2017-10-12T07:39:30Z</time>
      </trkpt>
      <trkpt lat="45.24295" lon="5.60815">
        <ele>635.2</ele>
        <time>2017-10-12T07:39:38Z</time>
      </trkpt>
      <trkpt lat="45.24285" lon="5.60836">
        <ele>632.16</ele>
        <time>2017-10-12T07:39:44Z</time>
      </trkpt>
      <trkpt lat="45.24271" lon="5.60859">
        <ele>636.55</ele>
        <time>2017-10-12T07:39:51Z</time>
      </trkpt>
      <trkpt lat="45.24262" lon="5.60884">
        <ele>633.96</ele>
        <time>2017-10-12T07:39:59Z</time>
      </trkpt>
      <trkpt lat="45.24266" lon="5.60914">
        <ele>643.53</ele>
        <time>2017-10-12T07:40:08Z</time>
      </trkpt>
      <trkpt lat="45.24261" lon="5.60941">
        <ele>650.02</ele>
        <time>2017-10-12T07:40:14Z</time>
      </trkpt>
      <trkpt lat="45.24255" lon="5.60966">
        <ele>650.09</ele>
        <time>2017-10-12T07:40:20Z</time>
      </trkpt>
      <trkpt lat="45.2425" lon="5.60991">
        <ele>649.95</ele>
        <time>2017-10-12T07:40:26Z</time>
      </trkpt>
      <trkpt lat="45.2424" lon="5.61013">
        <ele>646.59</ele>
        <time>2017-10-12T07:40:32Z</time>
      </trkpt>
      <trkpt lat="45.2423" lon="5.61038">
        <ele>647.76</ele>
        <time>2017-10-12T07:40:40Z</time>
      </trkpt>
      <trkpt lat="45.24229" lon="5.61067">
        <ele>655.38</ele>
        <time>2017-10-12T07:40:49Z</time>
      </trkpt>
      <trkpt lat="45.24229" lon="5.61093">
        <ele>657.13</ele>
        <time>2017-10-12T07:40:56Z</time>
      </trkpt>
      <trkpt lat="45.24225" lon="5.6112">
        <ele>658.63</ele>
        <time>2017-10-12T07:41:04Z</time>
      </trkpt>
      <trkpt lat="45.24221" lon="5.61145">
        <ele>660.1</ele>
        <time>2017-10-12T07:41:12Z</time>
      </trkpt>
      <trkpt lat="45.24217" lon="5.61171">
        <ele>658.41</ele>
        <time>2017-10-12T07:41:21Z</time>
      </trkpt>
      <trkpt lat="45.2422" lon="5.61196">
        <ele>661.14</ele>
        <time>2017-10-12T07:41:31Z</time>
      </trkpt>
      <trkpt lat="45.24222" lon="5.61225">
        <ele>666.98</ele>
        <time>2017-10-12T07:41:41Z</time>
      </trkpt>
      <trkpt lat="45.24223" lon="5.61252">
        <ele>672.61</ele>
        <time>2017-10-12T07:41:49Z</time>
      </trkpt>
      <trkpt lat="45.24235" lon="5.61271">
        <ele>678.9</ele>
        <time>2017-10-12T07:41:58Z</time>
      </trkpt>
      <trkpt lat="45.24227" lon="5.61298">
        <ele>675</ele>
        <time>2017-10-12T07:42:06Z</time>
      </trkpt>
      <trkpt lat="45.2422" lon="5.61325">
        <ele>675.68</ele>
        <time>2017-10-12T07:42:13Z</time>
      </trkpt>
      <trkpt lat="45.24215" lon="5.61352">
        <ele>676.63</ele>
        <time>2017-10-12T07:42:20Z</time>
      </trkpt>
      <trkpt lat="45.24206" lon="5.61376">
        <ele>673.73</ele>
        <time>2017-10-12T07:42:27Z</time>
      </trkpt>
      <trkpt lat="45.24196" lon="5.61401">
        <ele>668.56</ele>
        <time>2017-10-12T07:42:33Z</time>
      </trkpt>
      <trkpt lat="45.24189" lon="5.61426">
        <ele>666.36</ele>
        <time>2017-10-12T07:42:37Z</time>
      </trkpt>
      <trkpt lat="45.24187" lon="5.61452">
        <ele>669.01</ele>
        <time>2017-10-12T07:42:43Z</time>
      </trkpt>
      <trkpt lat="45.24174" lon="5.61477">
        <ele>670.32</ele>
        <time>2017-10-12T07:42:48Z</time>
      </trkpt>
      <trkpt lat="45.24162" lon="5.61501">
        <ele>669.33</ele>
        <time>2017-10-12T07:42:53Z</time>
      </trkpt>
      <trkpt lat="45.24151" lon="5.61522">
        <ele>675.65</ele>
        <time>2017-10-12T07:43:00Z</time>
      </trkpt>
      <trkpt lat="45.24135" lon="5.61542">
        <ele>680.04</ele>
        <time>2017-10-12T07:43:07Z</time>
      </trkpt>
      <trkpt lat="45.24119" lon="5.61559">
        <ele>678.22</ele>
        <time>2017-10-12T07:43:12Z</time>
      </trkpt>
      <trkpt lat="45.24102" lon="5.61574">
        <ele>679.37</ele>
        <time>2017-10-12T07:43:19Z</time>
      </trkpt>
      <trkpt lat="45.24088" lon="5.61593">
        <ele>677.66</ele>
        <time>2017-10-12T07:43:22Z</time>
      </trkpt>
      <trkpt lat="45.24075" lon="5.61615">
        <ele>676.93</ele>
        <time>2017-10-12T07:43:27Z</time>
      </trkpt>
      <trkpt lat="45.24054" lon="5.61627">
        <ele>673.46</ele>
        <time>2017-10-12T07:43:33Z</time>
      </trkpt>
      <trkpt lat="45.24036" lon="5.61641">
        <ele>674.03</ele>
        <time>2017-10-12T07:43:37Z</time>
      </trkpt>
      <trkpt lat="45.24017" lon="5.61648">
        <ele>678.04</ele>
        <time>2017-10-12T07:43:43Z</time>
      </trkpt>
      <trkpt lat="45.23998" lon="5.6165">
        <ele>678.75</ele>
        <time>2017-10-12T07:43:48Z</time>
      </trkpt>
      <trkpt lat="45.2398" lon="5.61655">
        <ele>679.05</ele>
        <time>2017-10-12T07:43:53Z</time>
      </trkpt>
      <trkpt lat="45.23962" lon="5.61649">
        <ele>676.72</ele>
        <time>2017-10-12T07:43:58Z</time>
      </trkpt>
      <trkpt lat="45.23946" lon="5.61633">
        <ele>672.79</ele>
        <time>2017-10-12T07:44:03Z</time>
      </trkpt>
      <trkpt lat="45.23933" lon="5.61615">
        <ele>671.84</ele>
        <time>2017-10-12T07:44:08Z</time>
      </trkpt>
      <trkpt lat="45.23918" lon="5.61601">
        <ele>675.61</ele>
        <time>2017-10-12T07:44:13Z</time>
      </trkpt>
      <trkpt lat="45.23898" lon="5.61604">
        <ele>672.79</ele>
        <time>2017-10-12T07:44:19Z</time>
      </trkpt>
      <trkpt lat="45.23882" lon="5.6162">
        <ele>674.76</ele>
        <time>2017-10-12T07:44:24Z</time>
      </trkpt>
      <trkpt lat="45.23867" lon="5.61642">
        <ele>674.94</ele>
        <time>2017-10-12T07:44:29Z</time>
      </trkpt>
      <trkpt lat="45.23856" lon="5.61672">
        <ele>678.13</ele>
        <time>2017-10-12T07:44:35Z</time>
      </trkpt>
      <trkpt lat="45.23844" lon="5.61693">
        <ele>679.89</ele>
        <time>2017-10-12T07:44:39Z</time>
      </trkpt>
      <trkpt lat="45.2383" lon="5.6171">
        <ele>679.75</ele>
        <time>2017-10-12T07:44:44Z</time>
      </trkpt>
      <trkpt lat="45.23822" lon="5.61734">
        <ele>686.68</ele>
        <time>2017-10-12T07:44:51Z</time>
      </trkpt>
      <trkpt lat="45.23807" lon="5.61749">
        <ele>685.99</ele>
        <time>2017-10-12T07:44:56Z</time>
      </trkpt>
      <trkpt lat="45.23789" lon="5.61769">
        <ele>686.32</ele>
        <time>2017-10-12T07:45:01Z</time>
      </trkpt>
      <trkpt lat="45.23771" lon="5.61772">
        <ele>687.04</ele>
        <time>2017-10-12T07:45:05Z</time>
      </trkpt>
      <trkpt lat="45.23754" lon="5.61792">
        <ele>687.66</ele>
        <time>2017-10-12T07:45:11Z</time>
      </trkpt>
      <trkpt lat="45.23744" lon="5.61816">
        <ele>688.06</ele>
        <time>2017-10-12T07:45:15Z</time>
      </trkpt>
      <trkpt lat="45.23733" lon="5.61837">
        <ele>688.03</ele>
        <time>2017-10-12T07:45:21Z</time>
      </trkpt>
      <trkpt lat="45.23723" lon="5.61859">
        <ele>689.95</ele>
        <time>2017-10-12T07:45:27Z</time>
      </trkpt>
      <trkpt lat="45.23705" lon="5.61876">
        <ele>690.72</ele>
        <time>2017-10-12T07:45:32Z</time>
      </trkpt>
      <trkpt lat="45.23688" lon="5.61887">
        <ele>686.85</ele>
        <time>2017-10-12T07:45:38Z</time>
      </trkpt>
      <trkpt lat="45.2367" lon="5.61887">
        <ele>685.35</ele>
        <time>2017-10-12T07:45:43Z</time>
      </trkpt>
      <trkpt lat="45.23652" lon="5.61882">
        <ele>682.11</ele>
        <time>2017-10-12T07:45:48Z</time>
      </trkpt>
      <trkpt lat="45.23632" lon="5.61889">
        <ele>677.91</ele>
        <time>2017-10-12T07:45:52Z</time>
      </trkpt>
      <trkpt lat="45.23614" lon="5.61893">
        <ele>675.78</ele>
        <time>2017-10-12T07:45:57Z</time>
      </trkpt>
      <trkpt lat="45.23594" lon="5.61895">
        <ele>675.5</ele>
        <time>2017-10-12T07:46:02Z</time>
      </trkpt>
      <trkpt lat="45.23575" lon="5.61888">
        <ele>674.14</ele>
        <time>2017-10-12T07:46:07Z</time>
      </trkpt>
      <trkpt lat="45.23553" lon="5.61887">
        <ele>673.06</ele>
        <time>2017-10-12T07:46:14Z</time>
      </trkpt>
      <trkpt lat="45.23534" lon="5.61887">
        <ele>674.57</ele>
        <time>2017-10-12T07:46:19Z</time>
      </trkpt>
      <trkpt lat="45.23515" lon="5.61882">
        <ele>678.65</ele>
        <time>2017-10-12T07:46:25Z</time>
      </trkpt>
      <trkpt lat="45.23495" lon="5.61879">
        <ele>687.56</ele>
        <time>2017-10-12T07:46:32Z</time>
      </trkpt>
      <trkpt lat="45.23476" lon="5.61875">
        <ele>688.33</ele>
        <time>2017-10-12T07:46:39Z</time>
      </trkpt>
      <trkpt lat="45.23457" lon="5.61876">
        <ele>691.74</ele>
        <time>2017-10-12T07:46:46Z</time>
      </trkpt>
      <trkpt lat="45.23438" lon="5.61876">
        <ele>695.76</ele>
        <time>2017-10-12T07:46:54Z</time>
      </trkpt>
      <trkpt lat="45.2342" lon="5.61883">
        <ele>696.72</ele>
        <time>2017-10-12T07:47:01Z</time>
      </trkpt>
      <trkpt lat="45.23402" lon="5.61882">
        <ele>700.75</ele>
        <time>2017-10-12T07:47:09Z</time>
      </trkpt>
      <trkpt lat="45.23384" lon="5.61872">
        <ele>704.26</ele>
        <time>2017-10-12T07:47:16Z</time>
      </trkpt>
      <trkpt lat="45.23363" lon="5.61861">
        <ele>701.35</ele>
        <time>2017-10-12T07:47:24Z</time>
      </trkpt>
      <trkpt lat="45.23344" lon="5.61853">
        <ele>697.18</ele>
        <time>2017-10-12T07:47:30Z</time>
      </trkpt>
      <trkpt lat="45.23326" lon="5.61847">
        <ele>697.75</ele>
        <time>2017-10-12T07:47:36Z</time>
      </trkpt>
      <trkpt lat="45.23305" lon="5.61834">
        <ele>700.78</ele>
        <time>2017-10-12T07:47:42Z</time>
      </trkpt>
      <trkpt lat="45.23286" lon="5.61827">
        <ele>703.55</ele>
        <time>2017-10-12T07:47:46Z</time>
      </trkpt>
      <trkpt lat="45.23268" lon="5.61821">
        <ele>703.34</ele>
        <time>2017-10-12T07:47:50Z</time>
      </trkpt>
      <trkpt lat="45.23248" lon="5.6182">
        <ele>701.17</ele>
        <time>2017-10-12T07:47:54Z</time>
      </trkpt>
      <trkpt lat="45.2323" lon="5.61813">
        <ele>700.78</ele>
        <time>2017-10-12T07:47:57Z</time>
      </trkpt>
      <trkpt lat="45.23208" lon="5.61813">
        <ele>700.56</ele>
        <time>2017-10-12T07:48:01Z</time>
      </trkpt>
      <trkpt lat="45.23189" lon="5.61809">
        <ele>699.15</ele>
        <time>2017-10-12T07:48:04Z</time>
      </trkpt>
      <trkpt lat="45.23169" lon="5.61817">
        <ele>700.66</ele>
        <time>2017-10-12T07:48:08Z</time>
      </trkpt>
      <trkpt lat="45.23149" lon="5.61814">
        <ele>697.5</ele>
        <time>2017-10-12T07:48:13Z</time>
      </trkpt>
      <trkpt lat="45.23129" lon="5.61815">
        <ele>695.39</ele>
        <time>2017-10-12T07:48:16Z</time>
      </trkpt>
      <trkpt lat="45.23111" lon="5.61837">
        <ele>694.09</ele>
        <time>2017-10-12T07:48:19Z</time>
      </trkpt>
      <trkpt lat="45.2311" lon="5.61866">
        <ele>693.84</ele>
        <time>2017-10-12T07:48:22Z</time>
      </trkpt>
      <trkpt lat="45.23106" lon="5.61891">
        <ele>692.05</ele>
        <time>2017-10-12T07:48:29Z</time>
      </trkpt>
      <trkpt lat="45.23092" lon="5.6191">
        <ele>695.11</ele>
        <time>2017-10-12T07:48:33Z</time>
      </trkpt>
      <trkpt lat="45.23072" lon="5.61911">
        <ele>694.08</ele>
        <time>2017-10-12T07:48:36Z</time>
      </trkpt>
      <trkpt lat="45.23055" lon="5.6193">
        <ele>695.72</ele>
        <time>2017-10-12T07:48:41Z</time>
      </trkpt>
      <trkpt lat="45.23045" lon="5.61953">
        <ele>696.75</ele>
        <time>2017-10-12T07:48:45Z</time>
      </trkpt>
      <trkpt lat="45.2304" lon="5.61979">
        <ele>693.7</ele>
        <time>2017-10-12T07:48:52Z</time>
      </trkpt>
      <trkpt lat="45.23037" lon="5.62009">
        <ele>695.74</ele>
        <time>2017-10-12T07:48:57Z</time>
      </trkpt>
      <trkpt lat="45.23032" lon="5.62036">
        <ele>695.76</ele>
        <time>2017-10-12T07:49:02Z</time>
      </trkpt>
      <trkpt lat="45.2304" lon="5.62061">
        <ele>698.86</ele>
        <time>2017-10-12T07:49:07Z</time>
      </trkpt>
      <trkpt lat="45.23037" lon="5.6209">
        <ele>695.98</ele>
        <time>2017-10-12T07:49:13Z</time>
      </trkpt>
      <trkpt lat="45.23025" lon="5.62113">
        <ele>693.03</ele>
        <time>2017-10-12T07:49:20Z</time>
      </trkpt>
      <trkpt lat="45.23012" lon="5.62134">
        <ele>696.83</ele>
        <time>2017-10-12T07:49:28Z</time>
      </trkpt>
      <trkpt lat="45.23003" lon="5.62157">
        <ele>702.41</ele>
        <time>2017-10-12T07:49:38Z</time>
      </trkpt>
      <trkpt lat="45.23011" lon="5.6218">
        <ele>704.56</ele>
        <time>2017-10-12T07:49:45Z</time>
      </trkpt>
      <trkpt lat="45.23012" lon="5.62208">
        <ele>709.89</ele>
        <time>2017-10-12T07:49:55Z</time>
      </trkpt>
      <trkpt lat="45.2301" lon="5.62235">
        <ele>710.74</ele>
        <time>2017-10-12T07:50:05Z</time>
      </trkpt>
      <trkpt lat="45.23005" lon="5.62261">
        <ele>712.34</ele>
        <time>2017-10-12T07:50:12Z</time>
      </trkpt>
      <trkpt lat="45.23003" lon="5.62286">
        <ele>713.74</ele>
        <time>2017-10-12T07:50:17Z</time>
      </trkpt>
      <trkpt lat="45.22998" lon="5.62313">
        <ele>714.89</ele>
        <time>2017-10-12T07:50:24Z</time>
      </trkpt>
      <trkpt lat="45.22996" lon="5.62344">
        <ele>715.77</ele>
        <time>2017-10-12T07:50:31Z</time>
      </trkpt>
      <trkpt lat="45.22995" lon="5.62372">
        <ele>714.41</ele>
        <time>2017-10-12T07:50:39Z</time>
      </trkpt>
      <trkpt lat="45.22996" lon="5.62398">
        <ele>717.74</ele>
        <time>2017-10-12T07:50:47Z</time>
      </trkpt>
      <trkpt lat="45.22991" lon="5.62425">
        <ele>716.6</ele>
        <time>2017-10-12T07:50:55Z</time>
      </trkpt>
      <trkpt lat="45.22987" lon="5.6245">
        <ele>714.42</ele>
        <time>2017-10-12T07:51:01Z</time>
      </trkpt>
      <trkpt lat="45.22976" lon="5.62472">
        <ele>712.45</ele>
        <time>2017-10-12T07:51:09Z</time>
      </trkpt>
      <trkpt lat="45.22957" lon="5.62477">
        <ele>717.74</ele>
        <time>2017-10-12T07:51:18Z</time>
      </trkpt>
      <trkpt lat="45.22937" lon="5.62474">
        <ele>723.63</ele>
        <time>2017-10-12T07:51:59Z</time>
      </trkpt>
      <trkpt lat="45.2292" lon="5.62466">
        <ele>715.36</ele>
        <time>2017-10-12T07:52:10Z</time>
      </trkpt>
      <trkpt lat="45.229" lon="5.62463">
        <ele>714.77</ele>
        <time>2017-10-12T07:52:20Z</time>
      </trkpt>
      <trkpt lat="45.22882" lon="5.62469">
        <ele>717.92</ele>
        <time>2017-10-12T07:52:31Z</time>
      </trkpt>
      <trkpt lat="45.22865" lon="5.62484">
        <ele>719.72</ele>
        <time>2017-10-12T07:52:44Z</time>
      </trkpt>
      <trkpt lat="45.22849" lon="5.62493">
        <ele>729.05</ele>
        <time>2017-10-12T07:52:57Z</time>
      </trkpt>
      <trkpt lat="45.22832" lon="5.62504">
        <ele>727.92</ele>
        <time>2017-10-12T07:53:08Z</time>
      </trkpt>
      <trkpt lat="45.22822" lon="5.62528">
        <ele>733.35</ele>
        <time>2017-10-12T07:53:17Z</time>
      </trkpt>
      <trkpt lat="45.22806" lon="5.6254">
        <ele>736.71</ele>
        <time>2017-10-12T07:53:23Z</time>
      </trkpt>
      <trkpt lat="45.22787" lon="5.62541">
        <ele>739.79</ele>
        <time>2017-10-12T07:53:31Z</time>
      </trkpt>
      <trkpt lat="45.22768" lon="5.6255">
        <ele>739.96</ele>
        <time>2017-10-12T07:53:38Z</time>
      </trkpt>
      <trkpt lat="45.2275" lon="5.62557">
        <ele>739.99</ele>
        <time>2017-10-12T07:53:44Z</time>
      </trkpt>
      <trkpt lat="45.22729" lon="5.62556">
        <ele>737.78</ele>
        <time>2017-10-12T07:53:51Z</time>
      </trkpt>
      <trkpt lat="45.22739" lon="5.62533">
        <ele>741.03</ele>
        <time>2017-10-12T07:54:11Z</time>
      </trkpt>
      <trkpt lat="45.22757" lon="5.62523">
        <ele>747.56</ele>
        <time>2017-10-12T07:54:24Z</time>
      </trkpt>
      <trkpt lat="45.22773" lon="5.62506">
        <ele>745.86</ele>
        <time>2017-10-12T07:54:33Z</time>
      </trkpt>
      <trkpt lat="45.22785" lon="5.62487">
        <ele>742.26</ele>
        <time>2017-10-12T07:54:41Z</time>
      </trkpt>
      <trkpt lat="45.22795" lon="5.62466">
        <ele>746.42</ele>
        <time>2017-10-12T07:54:52Z</time>
      </trkpt>
      <trkpt lat="45.22806" lon="5.62445">
        <ele>750.93</ele>
        <time>2017-10-12T07:55:04Z</time>
      </trkpt>
      <trkpt lat="45.22818" lon="5.62425">
        <ele>749.97</ele>
        <time>2017-10-12T07:55:13Z</time>
      </trkpt>
      <trkpt lat="45.22832" lon="5.62407">
        <ele>748.07</ele>
        <time>2017-10-12T07:55:24Z</time>
      </trkpt>
      <trkpt lat="45.22849" lon="5.62393">
        <ele>751.43</ele>
        <time>2017-10-12T07:55:33Z</time>
      </trkpt>
      <trkpt lat="45.22864" lon="5.62378">
        <ele>750.52</ele>
        <time>2017-10-12T07:55:44Z</time>
      </trkpt>
      <trkpt lat="45.2288" lon="5.62365">
        <ele>754.11</ele>
        <time>2017-10-12T07:55:54Z</time>
      </trkpt>
      <trkpt lat="45.22896" lon="5.62349">
        <ele>757.31</ele>
        <time>2017-10-12T07:56:04Z</time>
      </trkpt>
      <trkpt lat="45.22906" lon="5.62326">
        <ele>759.64</ele>
        <time>2017-10-12T07:56:18Z</time>
      </trkpt>
      <trkpt lat="45.22914" lon="5.62301">
        <ele>766.18</ele>
        <time>2017-10-12T07:56:28Z</time>
      </trkpt>
      <trkpt lat="45.22911" lon="5.62274">
        <ele>769.17</ele>
        <time>2017-10-12T07:56:40Z</time>
      </trkpt>
      <trkpt lat="45.22912" lon="5.62247">
        <ele>768.05</ele>
        <time>2017-10-12T07:56:51Z</time>
      </trkpt>
      <trkpt lat="45.22911" lon="5.6222">
        <ele>772.31</ele>
        <time>2017-10-12T07:57:01Z</time>
      </trkpt>
      <trkpt lat="45.22907" lon="5.62191">
        <ele>775.67</ele>
        <time>2017-10-12T07:57:12Z</time>
      </trkpt>
      <trkpt lat="45.22895" lon="5.62169">
        <ele>776.75</ele>
        <time>2017-10-12T07:57:22Z</time>
      </trkpt>
      <trkpt lat="45.22891" lon="5.62143">
        <ele>775.89</ele>
        <time>2017-10-12T07:57:31Z</time>
      </trkpt>
      <trkpt lat="45.22893" lon="5.62116">
        <ele>775.78</ele>
        <time>2017-10-12T07:57:41Z</time>
      </trkpt>
      <trkpt lat="45.22887" lon="5.6209">
        <ele>782.05</ele>
        <time>2017-10-12T07:57:50Z</time>
      </trkpt>
      <trkpt lat="45.22877" lon="5.62065">
        <ele>782.05</ele>
        <time>2017-10-12T07:58:00Z</time>
      </trkpt>
      <trkpt lat="45.22878" lon="5.62037">
        <ele>781.14</ele>
        <time>2017-10-12T07:58:11Z</time>
      </trkpt>
      <trkpt lat="45.22874" lon="5.62009">
        <ele>783.71</ele>
        <time>2017-10-12T07:58:23Z</time>
      </trkpt>
      <trkpt lat="45.22876" lon="5.61982">
        <ele>785.02</ele>
        <time>2017-10-12T07:58:34Z</time>
      </trkpt>
      <trkpt lat="45.22873" lon="5.61953">
        <ele>784.74</ele>
        <time>2017-10-12T07:58:44Z</time>
      </trkpt>
      <trkpt lat="45.22871" lon="5.61926">
        <ele>781.95</ele>
        <time>2017-10-12T07:58:52Z</time>
      </trkpt>
      <trkpt lat="45.2287" lon="5.61899">
        <ele>787.22</ele>
        <time>2017-10-12T07:59:01Z</time>
      </trkpt>
      <trkpt lat="45.22862" lon="5.6187">
        <ele>788.34</ele>
        <time>2017-10-12T07:59:13Z</time>
      </trkpt>
      <trkpt lat="45.22865" lon="5.61844">
        <ele>791.23</ele>
        <time>2017-10-12T07:59:22Z</time>
      </trkpt>
      <trkpt lat="45.22862" lon="5.61818">
        <ele>794.04</ele>
        <time>2017-10-12T07:59:31Z</time>
      </trkpt>
      <trkpt lat="45.22858" lon="5.61793">
        <ele>802.13</ele>
        <time>2017-10-12T07:59:40Z</time>
      </trkpt>
      <trkpt lat="45.2286" lon="5.61767">
        <ele>806.75</ele>
        <time>2017-10-12T07:59:50Z</time>
      </trkpt>
      <trkpt lat="45.2286" lon="5.61741">
        <ele>806.67</ele>
        <time>2017-10-12T08:00:00Z</time>
      </trkpt>
      <trkpt lat="45.22859" lon="5.61715">
        <ele>805.96</ele>
        <time>2017-10-12T08:00:09Z</time>
      </trkpt>
      <trkpt lat="45.22856" lon="5.61687">
        <ele>806.33</ele>
        <time>2017-10-12T08:00:18Z</time>
      </trkpt>
      <trkpt lat="45.22862" lon="5.61662">
        <ele>803.85</ele>
        <time>2017-10-12T08:00:28Z</time>
      </trkpt>
      <trkpt lat="45.22873" lon="5.61641">
        <ele>809.15</ele>
        <time>2017-10-12T08:00:36Z</time>
      </trkpt>
      <trkpt lat="45.2288" lon="5.61614">
        <ele>812.41</ele>
        <time>2017-10-12T08:00:46Z</time>
      </trkpt>
      <trkpt lat="45.22884" lon="5.61588">
        <ele>813.62</ele>
        <time>2017-10-12T08:00:58Z</time>
      </trkpt>
      <trkpt lat="45.22887" lon="5.61563">
        <ele>815.06</ele>
        <time>2017-10-12T08:01:07Z</time>
      </trkpt>
      <trkpt lat="45.22894" lon="5.61538">
        <ele>812.29</ele>
        <time>2017-10-12T08:01:19Z</time>
      </trkpt>
      <trkpt lat="45.22902" lon="5.61514">
        <ele>815.88</ele>
        <time>2017-10-12T08:01:26Z</time>
      </trkpt>
      <trkpt lat="45.22912" lon="5.61491">
        <ele>820.65</ele>
        <time>2017-10-12T08:01:33Z</time>
      </trkpt>
      <trkpt lat="45.22927" lon="5.61477">
        <ele>823.66</ele>
        <time>2017-10-12T08:01:41Z</time>
      </trkpt>
      <trkpt lat="45.22942" lon="5.61464">
        <ele>827.13</ele>
        <time>2017-10-12T08:01:48Z</time>
      </trkpt>
      <trkpt lat="45.22958" lon="5.61449">
        <ele>831.13</ele>
        <time>2017-10-12T08:01:57Z</time>
      </trkpt>
      <trkpt lat="45.22976" lon="5.61441">
        <ele>829.19</ele>
        <time>2017-10-12T08:02:03Z</time>
      </trkpt>
      <trkpt lat="45.22994" lon="5.61434">
        <ele>827.8</ele>
        <time>2017-10-12T08:02:11Z</time>
      </trkpt>
      <trkpt lat="45.2301" lon="5.61418">
        <ele>823.9</ele>
        <time>2017-10-12T08:02:17Z</time>
      </trkpt>
      <trkpt lat="45.23028" lon="5.6141">
        <ele>824.03</ele>
        <time>2017-10-12T08:02:21Z</time>
      </trkpt>
      <trkpt lat="45.23047" lon="5.61404">
        <ele>823.37</ele>
        <time>2017-10-12T08:02:27Z</time>
      </trkpt>
      <trkpt lat="45.23065" lon="5.61399">
        <ele>821.95</ele>
        <time>2017-10-12T08:02:34Z</time>
      </trkpt>
      <trkpt lat="45.23084" lon="5.61395">
        <ele>827.55</ele>
        <time>2017-10-12T08:02:41Z</time>
      </trkpt>
      <trkpt lat="45.23102" lon="5.61404">
        <ele>835.22</ele>
        <time>2017-10-12T08:02:48Z</time>
      </trkpt>
      <trkpt lat="45.23121" lon="5.61407">
        <ele>832.6</ele>
        <time>2017-10-12T08:02:55Z</time>
      </trkpt>
      <trkpt lat="45.23141" lon="5.61416">
        <ele>834.37</ele>
        <time>2017-10-12T08:03:03Z</time>
      </trkpt>
      <trkpt lat="45.23161" lon="5.6142">
        <ele>832.34</ele>
        <time>2017-10-12T08:03:11Z</time>
      </trkpt>
      <trkpt lat="45.23181" lon="5.61413">
        <ele>821.15</ele>
        <time>2017-10-12T08:03:17Z</time>
      </trkpt>
      <trkpt lat="45.23198" lon="5.61401">
        <ele>820.22</ele>
        <time>2017-10-12T08:03:23Z</time>
      </trkpt>
      <trkpt lat="45.23218" lon="5.61394">
        <ele>826.97</ele>
        <time>2017-10-12T08:03:30Z</time>
      </trkpt>
      <trkpt lat="45.23236" lon="5.61383">
        <ele>825.05</ele>
        <time>2017-10-12T08:03:37Z</time>
      </trkpt>
      <trkpt lat="45.23252" lon="5.61365">
        <ele>822.8</ele>
        <time>2017-10-12T08:03:45Z</time>
      </trkpt>
      <trkpt lat="45.23265" lon="5.61345">
        <ele>822.44</ele>
        <time>2017-10-12T08:03:51Z</time>
      </trkpt>
      <trkpt lat="45.23281" lon="5.61331">
        <ele>824.72</ele>
        <time>2017-10-12T08:03:58Z</time>
      </trkpt>
      <trkpt lat="45.23296" lon="5.61314">
        <ele>824.65</ele>
        <time>2017-10-12T08:04:05Z</time>
      </trkpt>
      <trkpt lat="45.23313" lon="5.61304">
        <ele>827.14</ele>
        <time>2017-10-12T08:04:15Z</time>
      </trkpt>
      <trkpt lat="45.23331" lon="5.61297">
        <ele>836.09</ele>
        <time>2017-10-12T08:04:24Z</time>
      </trkpt>
      <trkpt lat="45.23347" lon="5.61283">
        <ele>839.63</ele>
        <time>2017-10-12T08:04:32Z</time>
      </trkpt>
      <trkpt lat="45.23369" lon="5.61279">
        <ele>847.01</ele>
        <time>2017-10-12T08:04:44Z</time>
      </trkpt>
      <trkpt lat="45.23387" lon="5.61283">
        <ele>849.69</ele>
        <time>2017-10-12T08:04:52Z</time>
      </trkpt>
      <trkpt lat="45.23405" lon="5.61292">
        <ele>858.31</ele>
        <time>2017-10-12T08:05:03Z</time>
      </trkpt>
      <trkpt lat="45.23425" lon="5.61292">
        <ele>857.98</ele>
        <time>2017-10-12T08:05:14Z</time>
      </trkpt>
      <trkpt lat="45.23444" lon="5.61299">
        <ele>848.69</ele>
        <time>2017-10-12T08:05:25Z</time>
      </trkpt>
      <trkpt lat="45.23461" lon="5.61311">
        <ele>851.71</ele>
        <time>2017-10-12T08:05:33Z</time>
      </trkpt>
      <trkpt lat="45.23478" lon="5.61318">
        <ele>847.11</ele>
        <time>2017-10-12T08:05:41Z</time>
      </trkpt>
      <trkpt lat="45.23497" lon="5.61321">
        <ele>847.83</ele>
        <time>2017-10-12T08:05:47Z</time>
      </trkpt>
      <trkpt lat="45.23516" lon="5.61323">
        <ele>847.74</ele>
        <time>2017-10-12T08:05:56Z</time>
      </trkpt>
      <trkpt lat="45.23533" lon="5.6133">
        <ele>846.22</ele>
        <time>2017-10-12T08:06:05Z</time>
      </trkpt>
      <trkpt lat="45.23549" lon="5.61342">
        <ele>853</ele>
        <time>2017-10-12T08:06:15Z</time>
      </trkpt>
      <trkpt lat="45.23569" lon="5.61351">
        <ele>854.95</ele>
        <time>2017-10-12T08:06:23Z</time>
      </trkpt>
      <trkpt lat="45.23587" lon="5.61358">
        <ele>852.81</ele>
        <time>2017-10-12T08:06:32Z</time>
      </trkpt>
      <trkpt lat="45.23606" lon="5.61354">
        <ele>858.04</ele>
        <time>2017-10-12T08:06:41Z</time>
      </trkpt>
      <trkpt lat="45.23624" lon="5.61346">
        <ele>859.94</ele>
        <time>2017-10-12T08:07:03Z</time>
      </trkpt>
      <trkpt lat="45.23639" lon="5.61332">
        <ele>857.58</ele>
        <time>2017-10-12T08:07:12Z</time>
      </trkpt>
      <trkpt lat="45.23656" lon="5.6132">
        <ele>859.17</ele>
        <time>2017-10-12T08:07:23Z</time>
      </trkpt>
      <trkpt lat="45.23668" lon="5.61296">
        <ele>857.06</ele>
        <time>2017-10-12T08:07:34Z</time>
      </trkpt>
      <trkpt lat="45.23683" lon="5.61281">
        <ele>855.73</ele>
        <time>2017-10-12T08:07:43Z</time>
      </trkpt>
      <trkpt lat="45.23696" lon="5.61262">
        <ele>856.05</ele>
        <time>2017-10-12T08:07:52Z</time>
      </trkpt>
      <trkpt lat="45.23705" lon="5.61238">
        <ele>857.05</ele>
        <time>2017-10-12T08:07:59Z</time>
      </trkpt>
      <trkpt lat="45.23717" lon="5.61217">
        <ele>857.98</ele>
        <time>2017-10-12T08:08:09Z</time>
      </trkpt>
      <trkpt lat="45.23731" lon="5.61199">
        <ele>865.44</ele>
        <time>2017-10-12T08:08:19Z</time>
      </trkpt>
      <trkpt lat="45.23747" lon="5.61182">
        <ele>866.28</ele>
        <time>2017-10-12T08:08:28Z</time>
      </trkpt>
      <trkpt lat="45.23763" lon="5.6117">
        <ele>867.22</ele>
        <time>2017-10-12T08:08:37Z</time>
      </trkpt>
      <trkpt lat="45.23778" lon="5.61155">
        <ele>863.99</ele>
        <time>2017-10-12T08:08:45Z</time>
      </trkpt>
      <trkpt lat="45.23797" lon="5.61143">
        <ele>882.95</ele>
        <time>2017-10-12T08:09:21Z</time>
      </trkpt>
      <trkpt lat="45.23815" lon="5.61139">
        <ele>884.02</ele>
        <time>2017-10-12T08:09:25Z</time>
      </trkpt>
      <trkpt lat="45.23835" lon="5.61132">
        <ele>877.54</ele>
        <time>2017-10-12T08:09:30Z</time>
      </trkpt>
      <trkpt lat="45.23854" lon="5.61123">
        <ele>878.31</ele>
        <time>2017-10-12T08:09:36Z</time>
      </trkpt>
      <trkpt lat="45.23873" lon="5.61113">
        <ele>880.11</ele>
        <time>2017-10-12T08:09:42Z</time>
      </trkpt>
      <trkpt lat="45.23889" lon="5.61101">
        <ele>879.48</ele>
        <time>2017-10-12T08:09:47Z</time>
      </trkpt>
      <trkpt lat="45.23911" lon="5.61092">
        <ele>875.28</ele>
        <time>2017-10-12T08:09:52Z</time>
      </trkpt>
      <trkpt lat="45.23928" lon="5.61082">
        <ele>873.75</ele>
        <time>2017-10-12T08:09:57Z</time>
      </trkpt>
      <trkpt lat="45.2391" lon="5.61086">
        <ele>882.05</ele>
        <time>2017-10-12T08:10:40Z</time>
      </trkpt>
      <trkpt lat="45.23892" lon="5.61094">
        <ele>882.56</ele>
        <time>2017-10-12T08:10:51Z</time>
      </trkpt>
      <trkpt lat="45.23877" lon="5.61109">
        <ele>885.07</ele>
        <time>2017-10-12T08:10:59Z</time>
      </trkpt>
      <trkpt lat="45.23857" lon="5.6112">
        <ele>889.77</ele>
        <time>2017-10-12T08:11:09Z</time>
      </trkpt>
      <trkpt lat="45.23842" lon="5.61098">
        <ele>890.41</ele>
        <time>2017-10-12T08:11:18Z</time>
      </trkpt>
      <trkpt lat="45.23828" lon="5.61081">
        <ele>889.49</ele>
        <time>2017-10-12T08:11:26Z</time>
      </trkpt>
      <trkpt lat="45.23811" lon="5.6107">
        <ele>889.11</ele>
        <time>2017-10-12T08:11:35Z</time>
      </trkpt>
      <trkpt lat="45.23793" lon="5.6107">
        <ele>891.64</ele>
        <time>2017-10-12T08:11:48Z</time>
      </trkpt>
      <trkpt lat="45.23773" lon="5.61074">
        <ele>890.96</ele>
        <time>2017-10-12T08:12:02Z</time>
      </trkpt>
      <trkpt lat="45.23755" lon="5.61074">
        <ele>901.08</ele>
        <time>2017-10-12T08:12:09Z</time>
      </trkpt>
      <trkpt lat="45.23737" lon="5.61066">
        <ele>893.95</ele>
        <time>2017-10-12T08:12:20Z</time>
      </trkpt>
      <trkpt lat="45.23719" lon="5.61068">
        <ele>898.72</ele>
        <time>2017-10-12T08:12:30Z</time>
      </trkpt>
      <trkpt lat="45.237" lon="5.6107">
        <ele>906.22</ele>
        <time>2017-10-12T08:12:42Z</time>
      </trkpt>
      <trkpt lat="45.23683" lon="5.61086">
        <ele>920.1</ele>
        <time>2017-10-12T08:12:57Z</time>
      </trkpt>
      <trkpt lat="45.23665" lon="5.61087">
        <ele>922.35</ele>
        <time>2017-10-12T08:13:35Z</time>
      </trkpt>
      <trkpt lat="45.23648" lon="5.611">
        <ele>919.76</ele>
        <time>2017-10-12T08:13:45Z</time>
      </trkpt>
      <trkpt lat="45.23633" lon="5.61117">
        <ele>921.26</ele>
        <time>2017-10-12T08:13:55Z</time>
      </trkpt>
      <trkpt lat="45.23614" lon="5.61123">
        <ele>920.12</ele>
        <time>2017-10-12T08:14:03Z</time>
      </trkpt>
      <trkpt lat="45.23595" lon="5.61115">
        <ele>918.18</ele>
        <time>2017-10-12T08:14:13Z</time>
      </trkpt>
      <trkpt lat="45.23578" lon="5.61106">
        <ele>918.05</ele>
        <time>2017-10-12T08:14:23Z</time>
      </trkpt>
      <trkpt lat="45.23561" lon="5.61099">
        <ele>918</ele>
        <time>2017-10-12T08:14:31Z</time>
      </trkpt>
      <trkpt lat="45.23543" lon="5.61088">
        <ele>918.92</ele>
        <time>2017-10-12T08:14:42Z</time>
      </trkpt>
      <trkpt lat="45.23528" lon="5.61066">
        <ele>921.51</ele>
        <time>2017-10-12T08:14:52Z</time>
      </trkpt>
      <trkpt lat="45.23514" lon="5.61047">
        <ele>924.16</ele>
        <time>2017-10-12T08:15:03Z</time>
      </trkpt>
      <trkpt lat="45.23497" lon="5.61031">
        <ele>926.43</ele>
        <time>2017-10-12T08:15:15Z</time>
      </trkpt>
      <trkpt lat="45.23485" lon="5.61011">
        <ele>932.26</ele>
        <time>2017-10-12T08:15:30Z</time>
      </trkpt>
      <trkpt lat="45.2348" lon="5.60982">
        <ele>936.27</ele>
        <time>2017-10-12T08:15:39Z</time>
      </trkpt>
      <trkpt lat="45.23474" lon="5.60958">
        <ele>937.33</ele>
        <time>2017-10-12T08:15:48Z</time>
      </trkpt>
      <trkpt lat="45.23464" lon="5.60935">
        <ele>944.78</ele>
        <time>2017-10-12T08:15:58Z</time>
      </trkpt>
      <trkpt lat="45.23447" lon="5.60924">
        <ele>941.45</ele>
        <time>2017-10-12T08:16:08Z</time>
      </trkpt>
      <trkpt lat="45.2343" lon="5.60917">
        <ele>945.5</ele>
        <time>2017-10-12T08:16:19Z</time>
      </trkpt>
      <trkpt lat="45.23415" lon="5.60899">
        <ele>948.52</ele>
        <time>2017-10-12T08:16:28Z</time>
      </trkpt>
      <trkpt lat="45.23401" lon="5.60881">
        <ele>957.13</ele>
        <time>2017-10-12T08:19:31Z</time>
      </trkpt>
      <trkpt lat="45.23383" lon="5.60867">
        <ele>949.07</ele>
        <time>2017-10-12T08:19:40Z</time>
      </trkpt>
      <trkpt lat="45.23364" lon="5.60864">
        <ele>949.79</ele>
        <time>2017-10-12T08:19:49Z</time>
      </trkpt>
      <trkpt lat="45.23344" lon="5.60871">
        <ele>950.13</ele>
        <time>2017-10-12T08:19:57Z</time>
      </trkpt>
      <trkpt lat="45.23325" lon="5.6087">
        <ele>950.05</ele>
        <time>2017-10-12T08:20:09Z</time>
      </trkpt>
      <trkpt lat="45.23307" lon="5.60877">
        <ele>957.01</ele>
        <time>2017-10-12T08:20:20Z</time>
      </trkpt>
      <trkpt lat="45.23288" lon="5.60869">
        <ele>959.37</ele>
        <time>2017-10-12T08:20:31Z</time>
      </trkpt>
      <trkpt lat="45.23269" lon="5.60874">
        <ele>960.12</ele>
        <time>2017-10-12T08:20:40Z</time>
      </trkpt>
      <trkpt lat="45.23249" lon="5.60879">
        <ele>960.03</ele>
        <time>2017-10-12T08:20:50Z</time>
      </trkpt>
      <trkpt lat="45.2323" lon="5.60883">
        <ele>965.72</ele>
        <time>2017-10-12T08:21:00Z</time>
      </trkpt>
      <trkpt lat="45.23209" lon="5.60885">
        <ele>964.56</ele>
        <time>2017-10-12T08:21:11Z</time>
      </trkpt>
      <trkpt lat="45.2319" lon="5.60884">
        <ele>964.02</ele>
        <time>2017-10-12T08:21:21Z</time>
      </trkpt>
      <trkpt lat="45.23171" lon="5.60889">
        <ele>968.08</ele>
        <time>2017-10-12T08:21:32Z</time>
      </trkpt>
      <trkpt lat="45.23151" lon="5.60898">
        <ele>969.11</ele>
        <time>2017-10-12T08:21:41Z</time>
      </trkpt>
      <trkpt lat="45.23132" lon="5.60905">
        <ele>977.73</ele>
        <time>2017-10-12T08:21:54Z</time>
      </trkpt>
      <trkpt lat="45.23117" lon="5.60921">
        <ele>983.92</ele>
        <time>2017-10-12T08:22:07Z</time>
      </trkpt>
      <trkpt lat="45.231" lon="5.60936">
        <ele>983.04</ele>
        <time>2017-10-12T08:22:17Z</time>
      </trkpt>
      <trkpt lat="45.23082" lon="5.60949">
        <ele>987.31</ele>
        <time>2017-10-12T08:22:29Z</time>
      </trkpt>
      <trkpt lat="45.23066" lon="5.60961">
        <ele>990.05</ele>
        <time>2017-10-12T08:22:37Z</time>
      </trkpt>
      <trkpt lat="45.23047" lon="5.60968">
        <ele>989.35</ele>
        <time>2017-10-12T08:22:48Z</time>
      </trkpt>
      <trkpt lat="45.23027" lon="5.6097">
        <ele>991.55</ele>
        <time>2017-10-12T08:23:00Z</time>
      </trkpt>
      <trkpt lat="45.23008" lon="5.60973">
        <ele>988.28</ele>
        <time>2017-10-12T08:23:09Z</time>
      </trkpt>
      <trkpt lat="45.22989" lon="5.60968">
        <ele>994.77</ele>
        <time>2017-10-12T08:23:24Z</time>
      </trkpt>
      <trkpt lat="45.23007" lon="5.60965">
        <ele>1004.02</ele>
        <time>2017-10-12T08:23:45Z</time>
      </trkpt>
      <trkpt lat="45.23027" lon="5.60955">
        <ele>1002.07</ele>
        <time>2017-10-12T08:23:50Z</time>
      </trkpt>
      <trkpt lat="45.23044" lon="5.6094">
        <ele>1003.58</ele>
        <time>2017-10-12T08:23:54Z</time>
      </trkpt>
      <trkpt lat="45.23061" lon="5.60928">
        <ele>996.44</ele>
        <time>2017-10-12T08:24:13Z</time>
      </trkpt>
      <trkpt lat="45.23075" lon="5.60911">
        <ele>996.53</ele>
        <time>2017-10-12T08:24:27Z</time>
      </trkpt>
      <trkpt lat="45.23088" lon="5.60892">
        <ele>998.18</ele>
        <time>2017-10-12T08:24:38Z</time>
      </trkpt>
      <trkpt lat="45.23102" lon="5.60872">
        <ele>1004.49</ele>
        <time>2017-10-12T08:24:48Z</time>
      </trkpt>
      <trkpt lat="45.23114" lon="5.60851">
        <ele>1002.62</ele>
        <time>2017-10-12T08:24:58Z</time>
      </trkpt>
      <trkpt lat="45.2313" lon="5.60834">
        <ele>1008.04</ele>
        <time>2017-10-12T08:25:07Z</time>
      </trkpt>
      <trkpt lat="45.23147" lon="5.60824">
        <ele>1010.76</ele>
        <time>2017-10-12T08:25:16Z</time>
      </trkpt>
      <trkpt lat="45.23165" lon="5.6081">
        <ele>1008.21</ele>
        <time>2017-10-12T08:25:29Z</time>
      </trkpt>
      <trkpt lat="45.2318" lon="5.60789">
        <ele>1008.43</ele>
        <time>2017-10-12T08:25:42Z</time>
      </trkpt>
      <trkpt lat="45.23196" lon="5.60775">
        <ele>1015.74</ele>
        <time>2017-10-12T08:25:52Z</time>
      </trkpt>
      <trkpt lat="45.23211" lon="5.60759">
        <ele>1021.42</ele>
        <time>2017-10-12T08:26:00Z</time>
      </trkpt>
      <trkpt lat="45.23226" lon="5.60743">
        <ele>1022.34</ele>
        <time>2017-10-12T08:26:12Z</time>
      </trkpt>
      <trkpt lat="45.23243" lon="5.60732">
        <ele>1027.78</ele>
        <time>2017-10-12T08:26:25Z</time>
      </trkpt>
      <trkpt lat="45.23259" lon="5.60716">
        <ele>1030.22</ele>
        <time>2017-10-12T08:26:36Z</time>
      </trkpt>
      <trkpt lat="45.23276" lon="5.60704">
        <ele>1031.25</ele>
        <time>2017-10-12T08:26:46Z</time>
      </trkpt>
      <trkpt lat="45.23293" lon="5.60693">
        <ele>1028.12</ele>
        <time>2017-10-12T08:26:56Z</time>
      </trkpt>
      <trkpt lat="45.23312" lon="5.60686">
        <ele>1028.94</ele>
        <time>2017-10-12T08:27:07Z</time>
      </trkpt>
      <trkpt lat="45.23329" lon="5.60674">
        <ele>1034.01</ele>
        <time>2017-10-12T08:27:16Z</time>
      </trkpt>
      <trkpt lat="45.23348" lon="5.60676">
        <ele>1032.55</ele>
        <time>2017-10-12T08:27:31Z</time>
      </trkpt>
      <trkpt lat="45.23368" lon="5.60673">
        <ele>1035.89</ele>
        <time>2017-10-12T08:27:44Z</time>
      </trkpt>
      <trkpt lat="45.23386" lon="5.60669">
        <ele>1043.6</ele>
        <time>2017-10-12T08:27:57Z</time>
      </trkpt>
      <trkpt lat="45.23404" lon="5.60659">
        <ele>1045.99</ele>
        <time>2017-10-12T08:28:07Z</time>
      </trkpt>
      <trkpt lat="45.23418" lon="5.60644">
        <ele>1046.75</ele>
        <time>2017-10-12T08:28:15Z</time>
      </trkpt>
      <trkpt lat="45.23437" lon="5.60644">
        <ele>1053.64</ele>
        <time>2017-10-12T08:28:29Z</time>
      </trkpt>
      <trkpt lat="45.23455" lon="5.60633">
        <ele>1059.11</ele>
        <time>2017-10-12T08:28:41Z</time>
      </trkpt>
      <trkpt lat="45.2347" lon="5.60618">
        <ele>1055.57</ele>
        <time>2017-10-12T08:28:54Z</time>
      </trkpt>
      <trkpt lat="45.23483" lon="5.60598">
        <ele>1054.05</ele>
        <time>2017-10-12T08:29:07Z</time>
      </trkpt>
      <trkpt lat="45.23497" lon="5.60579">
        <ele>1059.48</ele>
        <time>2017-10-12T08:29:18Z</time>
      </trkpt>
      <trkpt lat="45.23513" lon="5.60565">
        <ele>1067.91</ele>
        <time>2017-10-12T08:29:28Z</time>
      </trkpt>
      <trkpt lat="45.23527" lon="5.60548">
        <ele>1071.31</ele>
        <time>2017-10-12T08:29:37Z</time>
      </trkpt>
      <trkpt lat="45.2354" lon="5.60529">
        <ele>1076.61</ele>
        <time>2017-10-12T08:29:49Z</time>
      </trkpt>
      <trkpt lat="45.23555" lon="5.60514">
        <ele>1086.3</ele>
        <time>2017-10-12T08:29:58Z</time>
      </trkpt>
      <trkpt lat="45.23568" lon="5.60496">
        <ele>1082.67</ele>
        <time>2017-10-12T08:30:08Z</time>
      </trkpt>
      <trkpt lat="45.23581" lon="5.60476">
        <ele>1082.06</ele>
        <time>2017-10-12T08:30:16Z</time>
      </trkpt>
      <trkpt lat="45.23593" lon="5.60456">
        <ele>1078.14</ele>
        <time>2017-10-12T08:30:26Z</time>
      </trkpt>
      <trkpt lat="45.23602" lon="5.60432">
        <ele>1079.53</ele>
        <time>2017-10-12T08:30:39Z</time>
      </trkpt>
      <trkpt lat="45.23615" lon="5.60412">
        <ele>1083.22</ele>
        <time>2017-10-12T08:30:51Z</time>
      </trkpt>
      <trkpt lat="45.23628" lon="5.60391">
        <ele>1084.66</ele>
        <time>2017-10-12T08:31:01Z</time>
      </trkpt>
      <trkpt lat="45.23643" lon="5.60377">
        <ele>1087.17</ele>
        <time>2017-10-12T08:31:16Z</time>
      </trkpt>
      <trkpt lat="45.23659" lon="5.60361">
        <ele>1090.02</ele>
        <time>2017-10-12T08:31:26Z</time>
      </trkpt>
      <trkpt lat="45.23674" lon="5.60347">
        <ele>1095.65</ele>
        <time>2017-10-12T08:31:35Z</time>
      </trkpt>
      <trkpt lat="45.23687" lon="5.60328">
        <ele>1097.13</ele>
        <time>2017-10-12T08:31:47Z</time>
      </trkpt>
      <trkpt lat="45.237" lon="5.60307">
        <ele>1098.85</ele>
        <time>2017-10-12T08:31:56Z</time>
      </trkpt>
      <trkpt lat="45.23716" lon="5.60293">
        <ele>1100.15</ele>
        <time>2017-10-12T08:32:09Z</time>
      </trkpt>
      <trkpt lat="45.23735" lon="5.60289">
        <ele>1101.42</ele>
        <time>2017-10-12T08:32:24Z</time>
      </trkpt>
      <trkpt lat="45.23754" lon="5.60284">
        <ele>1105.96</ele>
        <time>2017-10-12T08:32:33Z</time>
      </trkpt>
      <trkpt lat="45.23772" lon="5.60275">
        <ele>1110.32</ele>
        <time>2017-10-12T08:32:41Z</time>
      </trkpt>
      <trkpt lat="45.23793" lon="5.60278">
        <ele>1114.46</ele>
        <time>2017-10-12T08:32:52Z</time>
      </trkpt>
      <trkpt lat="45.23811" lon="5.60282">
        <ele>1116.96</ele>
        <time>2017-10-12T08:33:01Z</time>
      </trkpt>
      <trkpt lat="45.23827" lon="5.60296">
        <ele>1118.82</ele>
        <time>2017-10-12T08:33:10Z</time>
      </trkpt>
      <trkpt lat="45.2382" lon="5.6027">
        <ele>1120.1</ele>
        <time>2017-10-12T08:33:34Z</time>
      </trkpt>
      <trkpt lat="45.23804" lon="5.60256">
        <ele>1118.41</ele>
        <time>2017-10-12T08:33:45Z</time>
      </trkpt>
      <trkpt lat="45.23785" lon="5.60243">
        <ele>1118.05</ele>
        <time>2017-10-12T08:33:55Z</time>
      </trkpt>
      <trkpt lat="45.23767" lon="5.60245">
        <ele>1117.66</ele>
        <time>2017-10-12T08:34:01Z</time>
      </trkpt>
      <trkpt lat="45.23748" lon="5.60244">
        <ele>1117.72</ele>
        <time>2017-10-12T08:34:10Z</time>
      </trkpt>
      <trkpt lat="45.23729" lon="5.60248">
        <ele>1117.14</ele>
        <time>2017-10-12T08:34:19Z</time>
      </trkpt>
      <trkpt lat="45.23711" lon="5.60255">
        <ele>1122.97</ele>
        <time>2017-10-12T08:34:30Z</time>
      </trkpt>
      <trkpt lat="45.23693" lon="5.60252">
        <ele>1124.83</ele>
        <time>2017-10-12T08:34:40Z</time>
      </trkpt>
      <trkpt lat="45.23675" lon="5.60261">
        <ele>1129.71</ele>
        <time>2017-10-12T08:34:50Z</time>
      </trkpt>
      <trkpt lat="45.23656" lon="5.60267">
        <ele>1133.04</ele>
        <time>2017-10-12T08:35:02Z</time>
      </trkpt>
      <trkpt lat="45.23636" lon="5.60267">
        <ele>1135.02</ele>
        <time>2017-10-12T08:35:11Z</time>
      </trkpt>
      <trkpt lat="45.23619" lon="5.60279">
        <ele>1136.39</ele>
        <time>2017-10-12T08:35:20Z</time>
      </trkpt>
      <trkpt lat="45.23601" lon="5.60288">
        <ele>1139.14</ele>
        <time>2017-10-12T08:35:31Z</time>
      </trkpt>
      <trkpt lat="45.23584" lon="5.60302">
        <ele>1136.26</ele>
        <time>2017-10-12T08:35:56Z</time>
      </trkpt>
      <trkpt lat="45.2357" lon="5.6032">
        <ele>1139.77</ele>
        <time>2017-10-12T08:36:06Z</time>
      </trkpt>
      <trkpt lat="45.23553" lon="5.60333">
        <ele>1145.9</ele>
        <time>2017-10-12T08:36:17Z</time>
      </trkpt>
      <trkpt lat="45.23536" lon="5.60344">
        <ele>1149.1</ele>
        <time>2017-10-12T08:36:27Z</time>
      </trkpt>
      <trkpt lat="45.2352" lon="5.60358">
        <ele>1148.06</ele>
        <time>2017-10-12T08:36:36Z</time>
      </trkpt>
      <trkpt lat="45.23505" lon="5.60372">
        <ele>1149.27</ele>
        <time>2017-10-12T08:36:45Z</time>
      </trkpt>
      <trkpt lat="45.23487" lon="5.6038">
        <ele>1150.83</ele>
        <time>2017-10-12T08:36:53Z</time>
      </trkpt>
      <trkpt lat="45.2347" lon="5.6039">
        <ele>1153.49</ele>
        <time>2017-10-12T08:37:05Z</time>
      </trkpt>
      <trkpt lat="45.23451" lon="5.60397">
        <ele>1153.32</ele>
        <time>2017-10-12T08:37:13Z</time>
      </trkpt>
      <trkpt lat="45.23435" lon="5.6041">
        <ele>1155.93</ele>
        <time>2017-10-12T08:37:22Z</time>
      </trkpt>
      <trkpt lat="45.23417" lon="5.60415">
        <ele>1152.4</ele>
        <time>2017-10-12T08:37:31Z</time>
      </trkpt>
      <trkpt lat="45.23399" lon="5.60422">
        <ele>1155.02</ele>
        <time>2017-10-12T08:37:41Z</time>
      </trkpt>
      <trkpt lat="45.2338" lon="5.60427">
        <ele>1153.72</ele>
        <time>2017-10-12T08:37:49Z</time>
      </trkpt>
      <trkpt lat="45.23362" lon="5.60431">
        <ele>1153.85</ele>
        <time>2017-10-12T08:37:57Z</time>
      </trkpt>
      <trkpt lat="45.23343" lon="5.60433">
        <ele>1158.96</ele>
        <time>2017-10-12T08:38:09Z</time>
      </trkpt>
      <trkpt lat="45.23324" lon="5.60435">
        <ele>1162.38</ele>
        <time>2017-10-12T08:38:21Z</time>
      </trkpt>
      <trkpt lat="45.23305" lon="5.60428">
        <ele>1164.01</ele>
        <time>2017-10-12T08:38:30Z</time>
      </trkpt>
      <trkpt lat="45.23288" lon="5.60413">
        <ele>1168.61</ele>
        <time>2017-10-12T08:38:42Z</time>
      </trkpt>
      <trkpt lat="45.23307" lon="5.60406">
        <ele>1172.26</ele>
        <time>2017-10-12T08:38:56Z</time>
      </trkpt>
      <trkpt lat="45.23325" lon="5.60402">
        <ele>1175.27</ele>
        <time>2017-10-12T08:39:07Z</time>
      </trkpt>
      <trkpt lat="45.23342" lon="5.60391">
        <ele>1175.11</ele>
        <time>2017-10-12T08:39:17Z</time>
      </trkpt>
      <trkpt lat="45.23361" lon="5.60387">
        <ele>1177.45</ele>
        <time>2017-10-12T08:39:27Z</time>
      </trkpt>
      <trkpt lat="45.23379" lon="5.60376">
        <ele>1178.25</ele>
        <time>2017-10-12T08:39:37Z</time>
      </trkpt>
      <trkpt lat="45.23394" lon="5.6036">
        <ele>1177.97</ele>
        <time>2017-10-12T08:39:46Z</time>
      </trkpt>
      <trkpt lat="45.23413" lon="5.60348">
        <ele>1182.92</ele>
        <time>2017-10-12T08:40:00Z</time>
      </trkpt>
      <trkpt lat="45.23429" lon="5.60336">
        <ele>1188.54</ele>
        <time>2017-10-12T08:40:10Z</time>
      </trkpt>
      <trkpt lat="45.23444" lon="5.60321">
        <ele>1184.84</ele>
        <time>2017-10-12T08:40:18Z</time>
      </trkpt>
      <trkpt lat="45.23458" lon="5.60306">
        <ele>1183.16</ele>
        <time>2017-10-12T08:40:29Z</time>
      </trkpt>
      <trkpt lat="45.23471" lon="5.60288">
        <ele>1186.59</ele>
        <time>2017-10-12T08:40:39Z</time>
      </trkpt>
      <trkpt lat="45.23483" lon="5.60267">
        <ele>1189.62</ele>
        <time>2017-10-12T08:40:50Z</time>
      </trkpt>
      <trkpt lat="45.23493" lon="5.60245">
        <ele>1193.83</ele>
        <time>2017-10-12T08:41:01Z</time>
      </trkpt>
      <trkpt lat="45.23503" lon="5.6022">
        <ele>1198.43</ele>
        <time>2017-10-12T08:41:12Z</time>
      </trkpt>
      <trkpt lat="45.23518" lon="5.60205">
        <ele>1202.8</ele>
        <time>2017-10-12T08:41:19Z</time>
      </trkpt>
      <trkpt lat="45.2353" lon="5.60185">
        <ele>1206.24</ele>
        <time>2017-10-12T08:41:29Z</time>
      </trkpt>
      <trkpt lat="45.23545" lon="5.60164">
        <ele>1203.37</ele>
        <time>2017-10-12T08:41:39Z</time>
      </trkpt>
      <trkpt lat="45.23562" lon="5.60148">
        <ele>1203.38</ele>
        <time>2017-10-12T08:41:50Z</time>
      </trkpt>
      <trkpt lat="45.23577" lon="5.60134">
        <ele>1206.84</ele>
        <time>2017-10-12T08:41:58Z</time>
      </trkpt>
      <trkpt lat="45.23594" lon="5.60125">
        <ele>1216.02</ele>
        <time>2017-10-12T08:42:07Z</time>
      </trkpt>
      <trkpt lat="45.23611" lon="5.60112">
        <ele>1222.22</ele>
        <time>2017-10-12T08:42:21Z</time>
      </trkpt>
      <trkpt lat="45.23629" lon="5.60101">
        <ele>1227.95</ele>
        <time>2017-10-12T08:42:31Z</time>
      </trkpt>
      <trkpt lat="45.23647" lon="5.6009">
        <ele>1224.45</ele>
        <time>2017-10-12T08:42:41Z</time>
      </trkpt>
      <trkpt lat="45.23662" lon="5.60075">
        <ele>1226.05</ele>
        <time>2017-10-12T08:42:51Z</time>
      </trkpt>
      <trkpt lat="45.23678" lon="5.60059">
        <ele>1221.97</ele>
        <time>2017-10-12T08:43:00Z</time>
      </trkpt>
      <trkpt lat="45.23696" lon="5.60052">
        <ele>1224.97</ele>
        <time>2017-10-12T08:43:09Z</time>
      </trkpt>
      <trkpt lat="45.23711" lon="5.60037">
        <ele>1223.54</ele>
        <time>2017-10-12T08:43:19Z</time>
      </trkpt>
      <trkpt lat="45.2373" lon="5.60027">
        <ele>1229.84</ele>
        <time>2017-10-12T08:43:33Z</time>
      </trkpt>
      <trkpt lat="45.23746" lon="5.60015">
        <ele>1229.71</ele>
        <time>2017-10-12T08:43:42Z</time>
      </trkpt>
      <trkpt lat="45.23756" lon="5.59993">
        <ele>1219.39</ele>
        <time>2017-10-12T08:43:55Z</time>
      </trkpt>
      <trkpt lat="45.2375" lon="5.59969">
        <ele>1226.2</ele>
        <time>2017-10-12T08:44:09Z</time>
      </trkpt>
      <trkpt lat="45.23745" lon="5.59943">
        <ele>1239.71</ele>
        <time>2017-10-12T08:44:25Z</time>
      </trkpt>
      <trkpt lat="45.23737" lon="5.59919">
        <ele>1245.92</ele>
        <time>2017-10-12T08:44:38Z</time>
      </trkpt>
      <trkpt lat="45.23729" lon="5.59893">
        <ele>972.07</ele>
        <time>2017-10-12T08:44:49Z</time>
      </trkpt>
      <trkpt lat="45.23732" lon="5.59868">
        <ele>1171.53</ele>
        <time>2017-10-12T08:45:00Z</time>
      </trkpt>
      <trkpt lat="45.23731" lon="5.5984">
        <ele>1230.25</ele>
        <time>2017-10-12T08:45:13Z</time>
      </trkpt>
      <trkpt lat="45.23731" lon="5.59812">
        <ele>1252.95</ele>
        <time>2017-10-12T08:45:26Z</time>
      </trkpt>
      <trkpt lat="45.23721" lon="5.59788">
        <ele>1256.02</ele>
        <time>2017-10-12T08:45:41Z</time>
      </trkpt>
      <trkpt lat="45.23717" lon="5.59762">
        <ele>1258.09</ele>
        <time>2017-10-12T08:45:52Z</time>
      </trkpt>
      <trkpt lat="45.23702" lon="5.59744">
        <ele>1260.84</ele>
        <time>2017-10-12T08:46:06Z</time>
      </trkpt>
      <trkpt lat="45.23691" lon="5.59723">
        <ele>1262.73</ele>
        <time>2017-10-12T08:46:18Z</time>
      </trkpt>
      <trkpt lat="45.23686" lon="5.59695">
        <ele>1265.75</ele>
        <time>2017-10-12T08:46:27Z</time>
      </trkpt>
      <trkpt lat="45.23689" lon="5.59668">
        <ele>1270.34</ele>
        <time>2017-10-12T08:46:38Z</time>
      </trkpt>
      <trkpt lat="45.23693" lon="5.59641">
        <ele>1267.46</ele>
        <time>2017-10-12T08:46:46Z</time>
      </trkpt>
      <trkpt lat="45.23688" lon="5.59615">
        <ele>1265.42</ele>
        <time>2017-10-12T08:46:52Z</time>
      </trkpt>
      <trkpt lat="45.2369" lon="5.59587">
        <ele>1264.74</ele>
        <time>2017-10-12T08:47:00Z</time>
      </trkpt>
      <trkpt lat="45.23693" lon="5.5956">
        <ele>1265.06</ele>
        <time>2017-10-12T08:47:09Z</time>
      </trkpt>
      <trkpt lat="45.23692" lon="5.59534">
        <ele>1261.17</ele>
        <time>2017-10-12T08:47:15Z</time>
      </trkpt>
      <trkpt lat="45.23695" lon="5.59507">
        <ele>1261.04</ele>
        <time>2017-10-12T08:47:23Z</time>
      </trkpt>
      <trkpt lat="45.23694" lon="5.59481">
        <ele>1263.67</ele>
        <time>2017-10-12T08:47:31Z</time>
      </trkpt>
      <trkpt lat="45.23693" lon="5.59454">
        <ele>1172.78</ele>
        <time>2017-10-12T08:47:40Z</time>
      </trkpt>
      <trkpt lat="45.23695" lon="5.59428">
        <ele>1241.05</ele>
        <time>2017-10-12T08:47:48Z</time>
      </trkpt>
      <trkpt lat="45.23701" lon="5.594">
        <ele>1254.83</ele>
        <time>2017-10-12T08:47:55Z</time>
      </trkpt>
      <trkpt lat="45.23704" lon="5.59374">
        <ele>1255.06</ele>
        <time>2017-10-12T08:48:01Z</time>
      </trkpt>
      <trkpt lat="45.23709" lon="5.59347">
        <ele>1254.99</ele>
        <time>2017-10-12T08:48:07Z</time>
      </trkpt>
      <trkpt lat="45.23719" lon="5.59322">
        <ele>1251.35</ele>
        <time>2017-10-12T08:48:11Z</time>
      </trkpt>
      <trkpt lat="45.23733" lon="5.59303">
        <ele>1253.38</ele>
        <time>2017-10-12T08:48:15Z</time>
      </trkpt>
      <trkpt lat="45.23744" lon="5.5928">
        <ele>1262.76</ele>
        <time>2017-10-12T08:48:20Z</time>
      </trkpt>
      <trkpt lat="45.23754" lon="5.59258">
        <ele>1262.35</ele>
        <time>2017-10-12T08:48:25Z</time>
      </trkpt>
      <trkpt lat="45.23764" lon="5.59237">
        <ele>1265.71</ele>
        <time>2017-10-12T08:48:31Z</time>
      </trkpt>
      <trkpt lat="45.23777" lon="5.59216">
        <ele>1268.8</ele>
        <time>2017-10-12T08:48:37Z</time>
      </trkpt>
      <trkpt lat="45.23784" lon="5.59191">
        <ele>1265.26</ele>
        <time>2017-10-12T08:48:41Z</time>
      </trkpt>
      <trkpt lat="45.23792" lon="5.59164">
        <ele>1264.08</ele>
        <time>2017-10-12T08:48:46Z</time>
      </trkpt>
      <trkpt lat="45.23806" lon="5.59145">
        <ele>1264.77</ele>
        <time>2017-10-12T08:48:51Z</time>
      </trkpt>
      <trkpt lat="45.23819" lon="5.59122">
        <ele>1267.01</ele>
        <time>2017-10-12T08:48:56Z</time>
      </trkpt>
      <trkpt lat="45.23831" lon="5.59102">
        <ele>1266.14</ele>
        <time>2017-10-12T08:49:00Z</time>
      </trkpt>
      <trkpt lat="45.23853" lon="5.59099">
        <ele>1267.32</ele>
        <time>2017-10-12T08:49:05Z</time>
      </trkpt>
      <trkpt lat="45.23865" lon="5.59079">
        <ele>1267.03</ele>
        <time>2017-10-12T08:49:13Z</time>
      </trkpt>
      <trkpt lat="45.23884" lon="5.59081">
        <ele>1266.07</ele>
        <time>2017-10-12T08:49:19Z</time>
      </trkpt>
      <trkpt lat="45.23903" lon="5.59076">
        <ele>1263.03</ele>
        <time>2017-10-12T08:49:29Z</time>
      </trkpt>
      <trkpt lat="45.23924" lon="5.59074">
        <ele>1265.02</ele>
        <time>2017-10-12T08:49:38Z</time>
      </trkpt>
      <trkpt lat="45.23943" lon="5.59073">
        <ele>1270.04</ele>
        <time>2017-10-12T08:49:48Z</time>
      </trkpt>
      <trkpt lat="45.2396" lon="5.59069">
        <ele>1273.75</ele>
        <time>2017-10-12T08:50:16Z</time>
      </trkpt>
      <trkpt lat="45.23977" lon="5.59058">
        <ele>1275.79</ele>
        <time>2017-10-12T08:50:27Z</time>
      </trkpt>
      <trkpt lat="45.23993" lon="5.59044">
        <ele>1276.05</ele>
        <time>2017-10-12T08:50:42Z</time>
      </trkpt>
      <trkpt lat="45.24012" lon="5.59037">
        <ele>1281.7</ele>
        <time>2017-10-12T08:50:51Z</time>
      </trkpt>
      <trkpt lat="45.2403" lon="5.59028">
        <ele>1284.08</ele>
        <time>2017-10-12T08:51:00Z</time>
      </trkpt>
      <trkpt lat="45.24047" lon="5.59017">
        <ele>1283.46</ele>
        <time>2017-10-12T08:51:10Z</time>
      </trkpt>
      <trkpt lat="45.24065" lon="5.5901">
        <ele>1288.73</ele>
        <time>2017-10-12T08:51:21Z</time>
      </trkpt>
      <trkpt lat="45.24084" lon="5.59004">
        <ele>1291</ele>
        <time>2017-10-12T08:51:33Z</time>
      </trkpt>
      <trkpt lat="45.24102" lon="5.58996">
        <ele>1298.41</ele>
        <time>2017-10-12T08:51:42Z</time>
      </trkpt>
      <trkpt lat="45.24121" lon="5.58984">
        <ele>1297.97</ele>
        <time>2017-10-12T08:51:52Z</time>
      </trkpt>
      <trkpt lat="45.2414" lon="5.58982">
        <ele>1301.03</ele>
        <time>2017-10-12T08:52:03Z</time>
      </trkpt>
      <trkpt lat="45.24159" lon="5.58976">
        <ele>1299.07</ele>
        <time>2017-10-12T08:52:16Z</time>
      </trkpt>
      <trkpt lat="45.24177" lon="5.58974">
        <ele>1305.47</ele>
        <time>2017-10-12T08:52:28Z</time>
      </trkpt>
      <trkpt lat="45.24195" lon="5.58964">
        <ele>1310.92</ele>
        <time>2017-10-12T08:52:40Z</time>
      </trkpt>
      <trkpt lat="45.2421" lon="5.58948">
        <ele>1310.79</ele>
        <time>2017-10-12T08:52:48Z</time>
      </trkpt>
      <trkpt lat="45.24225" lon="5.58932">
        <ele>1311.16</ele>
        <time>2017-10-12T08:52:58Z</time>
      </trkpt>
      <trkpt lat="45.24236" lon="5.58912">
        <ele>1309.35</ele>
        <time>2017-10-12T08:53:08Z</time>
      </trkpt>
      <trkpt lat="45.2425" lon="5.58891">
        <ele>1312.26</ele>
        <time>2017-10-12T08:53:18Z</time>
      </trkpt>
      <trkpt lat="45.24267" lon="5.5888">
        <ele>1317.34</ele>
        <time>2017-10-12T08:53:31Z</time>
      </trkpt>
      <trkpt lat="45.24281" lon="5.58864">
        <ele>1319.22</ele>
        <time>2017-10-12T08:53:44Z</time>
      </trkpt>
      <trkpt lat="45.24297" lon="5.5885">
        <ele>1323.74</ele>
        <time>2017-10-12T08:53:56Z</time>
      </trkpt>
      <trkpt lat="45.24315" lon="5.58836">
        <ele>1324.96</ele>
        <time>2017-10-12T08:54:04Z</time>
      </trkpt>
      <trkpt lat="45.24333" lon="5.5883">
        <ele>1328.02</ele>
        <time>2017-10-12T08:54:13Z</time>
      </trkpt>
      <trkpt lat="45.24351" lon="5.58816">
        <ele>1323.75</ele>
        <time>2017-10-12T08:54:20Z</time>
      </trkpt>
      <trkpt lat="45.24362" lon="5.58787">
        <ele>1323.11</ele>
        <time>2017-10-12T08:54:25Z</time>
      </trkpt>
      <trkpt lat="45.24374" lon="5.58768">
        <ele>1323.05</ele>
        <time>2017-10-12T08:54:28Z</time>
      </trkpt>
      <trkpt lat="45.24395" lon="5.58767">
        <ele>1323.53</ele>
        <time>2017-10-12T08:54:36Z</time>
      </trkpt>
      <trkpt lat="45.24413" lon="5.58753">
        <ele>1319.75</ele>
        <time>2017-10-12T08:54:42Z</time>
      </trkpt>
      <trkpt lat="45.24431" lon="5.5874">
        <ele>1320.84</ele>
        <time>2017-10-12T08:54:54Z</time>
      </trkpt>
      <trkpt lat="45.24452" lon="5.58734">
        <ele>1316.17</ele>
        <time>2017-10-12T08:55:01Z</time>
      </trkpt>
      <trkpt lat="45.2447" lon="5.58739">
        <ele>1320.03</ele>
        <time>2017-10-12T08:55:09Z</time>
      </trkpt>
      <trkpt lat="45.24488" lon="5.58752">
        <ele>1320.98</ele>
        <time>2017-10-12T08:55:18Z</time>
      </trkpt>
      <trkpt lat="45.24506" lon="5.58755">
        <ele>1325.95</ele>
        <time>2017-10-12T08:55:26Z</time>
      </trkpt>
      <trkpt lat="45.24526" lon="5.58756">
        <ele>1326.87</ele>
        <time>2017-10-12T08:55:35Z</time>
      </trkpt>
      <trkpt lat="45.24508" lon="5.58744">
        <ele>1331.03</ele>
        <time>2017-10-12T08:56:02Z</time>
      </trkpt>
      <trkpt lat="45.24489" lon="5.58737">
        <ele>1333.11</ele>
        <time>2017-10-12T08:56:11Z</time>
      </trkpt>
      <trkpt lat="45.24472" lon="5.58726">
        <ele>1329.11</ele>
        <time>2017-10-12T08:56:19Z</time>
      </trkpt>
      <trkpt lat="45.24456" lon="5.58713">
        <ele>1330.03</ele>
        <time>2017-10-12T08:56:28Z</time>
      </trkpt>
      <trkpt lat="45.24438" lon="5.58709">
        <ele>1330.73</ele>
        <time>2017-10-12T08:56:39Z</time>
      </trkpt>
      <trkpt lat="45.24418" lon="5.58712">
        <ele>1331.67</ele>
        <time>2017-10-12T08:56:47Z</time>
      </trkpt>
      <trkpt lat="45.24401" lon="5.58721">
        <ele>1311.89</ele>
        <time>2017-10-12T08:56:56Z</time>
      </trkpt>
      <trkpt lat="45.24384" lon="5.58734">
        <ele>1332.28</ele>
        <time>2017-10-12T08:57:07Z</time>
      </trkpt>
      <trkpt lat="45.24363" lon="5.58735">
        <ele>1335.82</ele>
        <time>2017-10-12T08:57:16Z</time>
      </trkpt>
      <trkpt lat="45.24345" lon="5.58748">
        <ele>1339.63</ele>
        <time>2017-10-12T08:57:22Z</time>
      </trkpt>
      <trkpt lat="45.24331" lon="5.58765">
        <ele>1339.03</ele>
        <time>2017-10-12T08:57:30Z</time>
      </trkpt>
      <trkpt lat="45.24317" lon="5.58782">
        <ele>1341.51</ele>
        <time>2017-10-12T08:57:38Z</time>
      </trkpt>
      <trkpt lat="45.24298" lon="5.58787">
        <ele>1342.07</ele>
        <time>2017-10-12T08:57:47Z</time>
      </trkpt>
      <trkpt lat="45.24281" lon="5.58802">
        <ele>1343.78</ele>
        <time>2017-10-12T08:57:56Z</time>
      </trkpt>
      <trkpt lat="45.24264" lon="5.58812">
        <ele>1347.02</ele>
        <time>2017-10-12T08:58:05Z</time>
      </trkpt>
      <trkpt lat="45.24245" lon="5.58817">
        <ele>1350.14</ele>
        <time>2017-10-12T08:58:14Z</time>
      </trkpt>
      <trkpt lat="45.24227" lon="5.58828">
        <ele>1351.44</ele>
        <time>2017-10-12T08:58:23Z</time>
      </trkpt>
      <trkpt lat="45.24212" lon="5.58845">
        <ele>1354</ele>
        <time>2017-10-12T08:58:33Z</time>
      </trkpt>
      <trkpt lat="45.24196" lon="5.58858">
        <ele>1356.91</ele>
        <time>2017-10-12T08:58:42Z</time>
      </trkpt>
      <trkpt lat="45.24178" lon="5.58865">
        <ele>1358.81</ele>
        <time>2017-10-12T08:58:50Z</time>
      </trkpt>
      <trkpt lat="45.2416" lon="5.58859">
        <ele>1360.14</ele>
        <time>2017-10-12T08:59:00Z</time>
      </trkpt>
      <trkpt lat="45.24141" lon="5.58858">
        <ele>1360.03</ele>
        <time>2017-10-12T08:59:07Z</time>
      </trkpt>
      <trkpt lat="45.24123" lon="5.58857">
        <ele>1360.7</ele>
        <time>2017-10-12T08:59:15Z</time>
      </trkpt>
      <trkpt lat="45.24105" lon="5.5886">
        <ele>1365.01</ele>
        <time>2017-10-12T08:59:27Z</time>
      </trkpt>
      <trkpt lat="45.24086" lon="5.58857">
        <ele>1362.17</ele>
        <time>2017-10-12T08:59:35Z</time>
      </trkpt>
      <trkpt lat="45.24073" lon="5.58837">
        <ele>1368.01</ele>
        <time>2017-10-12T08:59:47Z</time>
      </trkpt>
      <trkpt lat="45.24099" lon="5.58866">
        <ele>1376.33</ele>
        <time>2017-10-12T09:00:14Z</time>
      </trkpt>
      <trkpt lat="45.23833" lon="5.5829">
        <ele>1367.59</ele>
        <time>2017-10-12T09:01:56Z</time>
      </trkpt>
      <trkpt lat="45.23816" lon="5.58272">
        <ele>1383.69</ele>
        <time>2017-10-12T09:02:00Z</time>
      </trkpt>
      <trkpt lat="45.23808" lon="5.58248">
        <ele>1384.29</ele>
        <time>2017-10-12T09:02:12Z</time>
      </trkpt>
      <trkpt lat="45.23799" lon="5.5822">
        <ele>1388.04</ele>
        <time>2017-10-12T09:02:19Z</time>
      </trkpt>
      <trkpt lat="45.23787" lon="5.58197">
        <ele>1390.01</ele>
        <time>2017-10-12T09:02:25Z</time>
      </trkpt>
      <trkpt lat="45.23777" lon="5.58173">
        <ele>1387.65</ele>
        <time>2017-10-12T09:02:30Z</time>
      </trkpt>
      <trkpt lat="45.23769" lon="5.5815">
        <ele>1385.3</ele>
        <time>2017-10-12T09:02:35Z</time>
      </trkpt>
      <trkpt lat="45.2377" lon="5.58124">
        <ele>1391.08</ele>
        <time>2017-10-12T09:05:57Z</time>
      </trkpt>
      <trkpt lat="45.23783" lon="5.58104">
        <ele>1388.44</ele>
        <time>2017-10-12T09:06:07Z</time>
      </trkpt>
      <trkpt lat="45.23802" lon="5.58104">
        <ele>1389.65</ele>
        <time>2017-10-12T09:06:20Z</time>
      </trkpt>
      <trkpt lat="45.23821" lon="5.58099">
        <ele>1385.11</ele>
        <time>2017-10-12T09:06:30Z</time>
      </trkpt>
      <trkpt lat="45.23841" lon="5.58101">
        <ele>1387.05</ele>
        <time>2017-10-12T09:06:40Z</time>
      </trkpt>
      <trkpt lat="45.2386" lon="5.58106">
        <ele>1389.69</ele>
        <time>2017-10-12T09:06:51Z</time>
      </trkpt>
      <trkpt lat="45.23873" lon="5.58126">
        <ele>1395</ele>
        <time>2017-10-12T09:07:00Z</time>
      </trkpt>
      <trkpt lat="45.23884" lon="5.58153">
        <ele>1390.48</ele>
        <time>2017-10-12T09:07:08Z</time>
      </trkpt>
      <trkpt lat="45.23891" lon="5.58179">
        <ele>1397.75</ele>
        <time>2017-10-12T09:07:20Z</time>
      </trkpt>
      <trkpt lat="45.23889" lon="5.58207">
        <ele>1398.32</ele>
        <time>2017-10-12T09:07:28Z</time>
      </trkpt>
      <trkpt lat="45.23885" lon="5.58234">
        <ele>1399.96</ele>
        <time>2017-10-12T09:07:35Z</time>
      </trkpt>
      <trkpt lat="45.23876" lon="5.58257">
        <ele>1400.65</ele>
        <time>2017-10-12T09:07:44Z</time>
      </trkpt>
      <trkpt lat="45.23869" lon="5.58283">
        <ele>1403.04</ele>
        <time>2017-10-12T09:07:53Z</time>
      </trkpt>
      <trkpt lat="45.23861" lon="5.58307">
        <ele>1405.22</ele>
        <time>2017-10-12T09:08:01Z</time>
      </trkpt>
      <trkpt lat="45.23854" lon="5.5833">
        <ele>1406.15</ele>
        <time>2017-10-12T09:08:12Z</time>
      </trkpt>
      <trkpt lat="45.23872" lon="5.58337">
        <ele>1417.1</ele>
        <time>2017-10-12T09:08:43Z</time>
      </trkpt>
      <trkpt lat="45.23886" lon="5.58323">
        <ele>1418.78</ele>
        <time>2017-10-12T09:08:58Z</time>
      </trkpt>
      <trkpt lat="45.23903" lon="5.58311">
        <ele>1422.96</ele>
        <time>2017-10-12T09:09:12Z</time>
      </trkpt>
      <trkpt lat="45.23921" lon="5.58304">
        <ele>1425.26</ele>
        <time>2017-10-12T09:09:27Z</time>
      </trkpt>
      <trkpt lat="45.23937" lon="5.58292">
        <ele>1429.58</ele>
        <time>2017-10-12T09:09:45Z</time>
      </trkpt>
      <trkpt lat="45.23949" lon="5.58311">
        <ele>1433.67</ele>
        <time>2017-10-12T09:10:09Z</time>
      </trkpt>
      <trkpt lat="45.23967" lon="5.58314">
        <ele>1441.41</ele>
        <time>2017-10-12T09:12:14Z</time>
      </trkpt>
      <trkpt lat="45.23973" lon="5.58338">
        <ele>1442.42</ele>
        <time>2017-10-12T09:12:29Z</time>
      </trkpt>
      <trkpt lat="45.23977" lon="5.58365">
        <ele>1439.54</ele>
        <time>2017-10-12T09:12:42Z</time>
      </trkpt>
      <trkpt lat="45.23977" lon="5.58391">
        <ele>1454.68</ele>
        <time>2017-10-12T09:13:33Z</time>
      </trkpt>
      <trkpt lat="45.23985" lon="5.58414">
        <ele>1458.26</ele>
        <time>2017-10-12T09:14:13Z</time>
      </trkpt>
      <trkpt lat="45.23991" lon="5.58439">
        <ele>1470.84</ele>
        <time>2017-10-12T09:15:13Z</time>
      </trkpt>
      <trkpt lat="45.23992" lon="5.58466">
        <ele>1480.35</ele>
        <time>2017-10-12T09:16:10Z</time>
      </trkpt>
      <trkpt lat="45.23983" lon="5.58489">
        <ele>1485.05</ele>
        <time>2017-10-12T09:16:49Z</time>
      </trkpt>
      <trkpt lat="45.23976" lon="5.58513">
        <ele>1486.05</ele>
        <time>2017-10-12T09:17:01Z</time>
      </trkpt>
      <trkpt lat="45.23994" lon="5.58512">
        <ele>1497.07</ele>
        <time>2017-10-12T09:18:24Z</time>
      </trkpt>
      <trkpt lat="45.24002" lon="5.58536">
        <ele>1500.84</ele>
        <time>2017-10-12T09:19:06Z</time>
      </trkpt>
      <trkpt lat="45.23996" lon="5.5856">
        <ele>1510.04</ele>
        <time>2017-10-12T09:19:39Z</time>
      </trkpt>
      <trkpt lat="45.24011" lon="5.58575">
        <ele>1505.22</ele>
        <time>2017-10-12T09:20:04Z</time>
      </trkpt>
      <trkpt lat="45.23998" lon="5.58595">
        <ele>1513.13</ele>
        <time>2017-10-12T09:20:18Z</time>
      </trkpt>
      <trkpt lat="45.23988" lon="5.58617">
        <ele>1515.99</ele>
        <time>2017-10-12T09:20:31Z</time>
      </trkpt>
      <trkpt lat="45.23974" lon="5.58635">
        <ele>1516.02</ele>
        <time>2017-10-12T09:20:43Z</time>
      </trkpt>
      <trkpt lat="45.23964" lon="5.58657">
        <ele>1517.04</ele>
        <time>2017-10-12T09:20:58Z</time>
      </trkpt>
      <trkpt lat="45.2395" lon="5.58675">
        <ele>1524.02</ele>
        <time>2017-10-12T09:21:13Z</time>
      </trkpt>
      <trkpt lat="45.23941" lon="5.58699">
        <ele>1522.7</ele>
        <time>2017-10-12T09:21:28Z</time>
      </trkpt>
      <trkpt lat="45.23959" lon="5.58698">
        <ele>1537.31</ele>
        <time>2017-10-12T09:22:27Z</time>
      </trkpt>
      <trkpt lat="45.23978" lon="5.587">
        <ele>1535.82</ele>
        <time>2017-10-12T09:22:39Z</time>
      </trkpt>
      <trkpt lat="45.23997" lon="5.58704">
        <ele>1537.75</ele>
        <time>2017-10-12T09:23:07Z</time>
      </trkpt>
      <trkpt lat="45.24015" lon="5.58703">
        <ele>1541.66</ele>
        <time>2017-10-12T09:23:18Z</time>
      </trkpt>
      <trkpt lat="45.24033" lon="5.58696">
        <ele>1548.02</ele>
        <time>2017-10-12T09:24:45Z</time>
      </trkpt>
      <trkpt lat="45.24052" lon="5.58689">
        <ele>1548.34</ele>
        <time>2017-10-12T09:24:58Z</time>
      </trkpt>
      <trkpt lat="45.24071" lon="5.58682">
        <ele>1548.37</ele>
        <time>2017-10-12T09:25:07Z</time>
      </trkpt>
      <trkpt lat="45.2409" lon="5.58681">
        <ele>1550.08</ele>
        <time>2017-10-12T09:25:17Z</time>
      </trkpt>
      <trkpt lat="45.24109" lon="5.58675">
        <ele>1547.33</ele>
        <time>2017-10-12T09:25:30Z</time>
      </trkpt>
      <trkpt lat="45.24125" lon="5.58662">
        <ele>1549.74</ele>
        <time>2017-10-12T09:25:59Z</time>
      </trkpt>
      <trkpt lat="45.2414" lon="5.58648">
        <ele>1549.26</ele>
        <time>2017-10-12T09:26:24Z</time>
      </trkpt>
      <trkpt lat="45.24158" lon="5.58648">
        <ele>1555.68</ele>
        <time>2017-10-12T09:26:48Z</time>
      </trkpt>
      <trkpt lat="45.24174" lon="5.58634">
        <ele>1557.97</ele>
        <time>2017-10-12T09:27:28Z</time>
      </trkpt>
      <trkpt lat="45.24189" lon="5.58618">
        <ele>1560.81</ele>
        <time>2017-10-12T09:27:55Z</time>
      </trkpt>
      <trkpt lat="45.24205" lon="5.58603">
        <ele>1560.96</ele>
        <time>2017-10-12T09:28:12Z</time>
      </trkpt>
      <trkpt lat="45.24221" lon="5.58592">
        <ele>1567.14</ele>
        <time>2017-10-12T09:28:37Z</time>
      </trkpt>
      <trkpt lat="45.24239" lon="5.58583">
        <ele>1572.22</ele>
        <time>2017-10-12T09:29:02Z</time>
      </trkpt>
      <trkpt lat="45.24256" lon="5.58575">
        <ele>1571.07</ele>
        <time>2017-10-12T09:29:25Z</time>
      </trkpt>
      <trkpt lat="45.24271" lon="5.58559">
        <ele>1579.99</ele>
        <time>2017-10-12T09:29:47Z</time>
      </trkpt>
      <trkpt lat="45.24289" lon="5.58552">
        <ele>1584.05</ele>
        <time>2017-10-12T09:30:11Z</time>
      </trkpt>
      <trkpt lat="45.24303" lon="5.58535">
        <ele>1586.34</ele>
        <time>2017-10-12T09:30:40Z</time>
      </trkpt>
      <trkpt lat="45.24311" lon="5.58512">
        <ele>1587.19</ele>
        <time>2017-10-12T09:31:11Z</time>
      </trkpt>
      <trkpt lat="45.24327" lon="5.58498">
        <ele>1593.96</ele>
        <time>2017-10-12T09:31:35Z</time>
      </trkpt>
      <trkpt lat="45.24344" lon="5.58487">
        <ele>1598.05</ele>
        <time>2017-10-12T09:32:12Z</time>
      </trkpt>
      <trkpt lat="45.2436" lon="5.5847">
        <ele>1607.06</ele>
        <time>2017-10-12T09:32:40Z</time>
      </trkpt>
      <trkpt lat="45.24372" lon="5.5845">
        <ele>1611.05</ele>
        <time>2017-10-12T09:33:05Z</time>
      </trkpt>
      <trkpt lat="45.24386" lon="5.58433">
        <ele>1616.05</ele>
        <time>2017-10-12T09:33:40Z</time>
      </trkpt>
      <trkpt lat="45.24372" lon="5.58451">
        <ele>1608.06</ele>
        <time>2017-10-12T09:42:25Z</time>
      </trkpt>
      <trkpt lat="45.24356" lon="5.58465">
        <ele>1605.78</ele>
        <time>2017-10-12T09:42:36Z</time>
      </trkpt>
      <trkpt lat="45.2434" lon="5.58479">
        <ele>1601.36</ele>
        <time>2017-10-12T09:42:53Z</time>
      </trkpt>
      <trkpt lat="45.24327" lon="5.58498">
        <ele>1597.15</ele>
        <time>2017-10-12T09:43:11Z</time>
      </trkpt>
      <trkpt lat="45.24313" lon="5.58517">
        <ele>1593.17</ele>
        <time>2017-10-12T09:43:24Z</time>
      </trkpt>
      <trkpt lat="45.24307" lon="5.58542">
        <ele>1591.24</ele>
        <time>2017-10-12T09:43:41Z</time>
      </trkpt>
      <trkpt lat="45.24292" lon="5.58556">
        <ele>1585.44</ele>
        <time>2017-10-12T09:44:04Z</time>
      </trkpt>
      <trkpt lat="45.24274" lon="5.58565">
        <ele>1579.18</ele>
        <time>2017-10-12T09:44:20Z</time>
      </trkpt>
      <trkpt lat="45.24258" lon="5.5858">
        <ele>1575.05</ele>
        <time>2017-10-12T09:44:34Z</time>
      </trkpt>
      <trkpt lat="45.24242" lon="5.58594">
        <ele>1575.05</ele>
        <time>2017-10-12T09:44:52Z</time>
      </trkpt>
      <trkpt lat="45.24223" lon="5.58605">
        <ele>1573.14</ele>
        <time>2017-10-12T09:45:04Z</time>
      </trkpt>
      <trkpt lat="45.24205" lon="5.58612">
        <ele>1564.45</ele>
        <time>2017-10-12T09:45:13Z</time>
      </trkpt>
      <trkpt lat="45.24188" lon="5.58625">
        <ele>1562.05</ele>
        <time>2017-10-12T09:45:22Z</time>
      </trkpt>
      <trkpt lat="45.24174" lon="5.58644">
        <ele>1560.36</ele>
        <time>2017-10-12T09:45:34Z</time>
      </trkpt>
      <trkpt lat="45.24157" lon="5.58654">
        <ele>1555.38</ele>
        <time>2017-10-12T09:45:42Z</time>
      </trkpt>
      <trkpt lat="45.24138" lon="5.58657">
        <ele>1549.2</ele>
        <time>2017-10-12T09:45:53Z</time>
      </trkpt>
      <trkpt lat="45.24122" lon="5.58671">
        <ele>1548.35</ele>
        <time>2017-10-12T09:46:06Z</time>
      </trkpt>
      <trkpt lat="45.24107" lon="5.58684">
        <ele>1553.05</ele>
        <time>2017-10-12T09:46:29Z</time>
      </trkpt>
      <trkpt lat="45.24087" lon="5.58688">
        <ele>1551.14</ele>
        <time>2017-10-12T09:46:44Z</time>
      </trkpt>
      <trkpt lat="45.24069" lon="5.58686">
        <ele>1550.11</ele>
        <time>2017-10-12T09:46:51Z</time>
      </trkpt>
      <trkpt lat="45.24049" lon="5.58692">
        <ele>1551.05</ele>
        <time>2017-10-12T09:47:00Z</time>
      </trkpt>
      <trkpt lat="45.24029" lon="5.587">
        <ele>1549.37</ele>
        <time>2017-10-12T09:47:07Z</time>
      </trkpt>
      <trkpt lat="45.24008" lon="5.58704">
        <ele>1549.05</ele>
        <time>2017-10-12T09:47:15Z</time>
      </trkpt>
      <trkpt lat="45.2399" lon="5.58711">
        <ele>1545.65</ele>
        <time>2017-10-12T09:47:26Z</time>
      </trkpt>
      <trkpt lat="45.23969" lon="5.58704">
        <ele>1541.44</ele>
        <time>2017-10-12T09:47:37Z</time>
      </trkpt>
      <trkpt lat="45.23948" lon="5.58711">
        <ele>1539.51</ele>
        <time>2017-10-12T09:47:41Z</time>
      </trkpt>
      <trkpt lat="45.23939" lon="5.58688">
        <ele>1528.57</ele>
        <time>2017-10-12T09:47:51Z</time>
      </trkpt>
      <trkpt lat="45.23951" lon="5.58667">
        <ele>1524.48</ele>
        <time>2017-10-12T09:47:55Z</time>
      </trkpt>
      <trkpt lat="45.23964" lon="5.58645">
        <ele>1522.18</ele>
        <time>2017-10-12T09:47:58Z</time>
      </trkpt>
      <trkpt lat="45.23978" lon="5.58624">
        <ele>1519.47</ele>
        <time>2017-10-12T09:48:01Z</time>
      </trkpt>
      <trkpt lat="45.23989" lon="5.58602">
        <ele>1515.75</ele>
        <time>2017-10-12T09:48:05Z</time>
      </trkpt>
      <trkpt lat="45.24002" lon="5.58579">
        <ele>1511.38</ele>
        <time>2017-10-12T09:48:10Z</time>
      </trkpt>
      <trkpt lat="45.24002" lon="5.58552">
        <ele>1508.06</ele>
        <time>2017-10-12T09:48:25Z</time>
      </trkpt>
      <trkpt lat="45.23995" lon="5.58529">
        <ele>1502.74</ele>
        <time>2017-10-12T09:48:39Z</time>
      </trkpt>
      <trkpt lat="45.23977" lon="5.58522">
        <ele>1502.42</ele>
        <time>2017-10-12T09:50:23Z</time>
      </trkpt>
      <trkpt lat="45.2398" lon="5.58494">
        <ele>1494.48</ele>
        <time>2017-10-12T09:50:42Z</time>
      </trkpt>
      <trkpt lat="45.23987" lon="5.5847">
        <ele>1489.11</ele>
        <time>2017-10-12T09:50:59Z</time>
      </trkpt>
      <trkpt lat="45.2399" lon="5.58442">
        <ele>1474.69</ele>
        <time>2017-10-12T09:51:17Z</time>
      </trkpt>
      <trkpt lat="45.23978" lon="5.5842">
        <ele>1459.59</ele>
        <time>2017-10-12T09:51:49Z</time>
      </trkpt>
      <trkpt lat="45.23974" lon="5.58391">
        <ele>1446.94</ele>
        <time>2017-10-12T09:52:11Z</time>
      </trkpt>
      <trkpt lat="45.23977" lon="5.58365">
        <ele>1445.34</ele>
        <time>2017-10-12T09:52:15Z</time>
      </trkpt>
      <trkpt lat="45.23971" lon="5.5834">
        <ele>1444.33</ele>
        <time>2017-10-12T09:52:20Z</time>
      </trkpt>
      <trkpt lat="45.23955" lon="5.58327">
        <ele>1442.36</ele>
        <time>2017-10-12T09:52:35Z</time>
      </trkpt>
      <trkpt lat="45.23949" lon="5.58303">
        <ele>1442.17</ele>
        <time>2017-10-12T09:52:44Z</time>
      </trkpt>
      <trkpt lat="45.23929" lon="5.5831">
        <ele>1435.36</ele>
        <time>2017-10-12T09:52:53Z</time>
      </trkpt>
      <trkpt lat="45.2391" lon="5.58316">
        <ele>1434.53</ele>
        <time>2017-10-12T09:53:00Z</time>
      </trkpt>
      <trkpt lat="45.23893" lon="5.58324">
        <ele>1433.29</ele>
        <time>2017-10-12T09:53:04Z</time>
      </trkpt>
      <trkpt lat="45.23875" lon="5.58338">
        <ele>1431.22</ele>
        <time>2017-10-12T09:53:11Z</time>
      </trkpt>
      <trkpt lat="45.23856" lon="5.58336">
        <ele>1426.75</ele>
        <time>2017-10-12T09:53:16Z</time>
      </trkpt>
      <trkpt lat="45.23857" lon="5.58308">
        <ele>1419.95</ele>
        <time>2017-10-12T09:53:26Z</time>
      </trkpt>
      <trkpt lat="45.23864" lon="5.58278">
        <ele>1419.34</ele>
        <time>2017-10-12T09:53:31Z</time>
      </trkpt>
      <trkpt lat="45.23872" lon="5.58253">
        <ele>1416.47</ele>
        <time>2017-10-12T09:53:34Z</time>
      </trkpt>
      <trkpt lat="45.23881" lon="5.58226">
        <ele>1413.48</ele>
        <time>2017-10-12T09:53:37Z</time>
      </trkpt>
      <trkpt lat="45.23893" lon="5.582">
        <ele>1407.41</ele>
        <time>2017-10-12T09:53:40Z</time>
      </trkpt>
      <trkpt lat="45.23897" lon="5.58174">
        <ele>1407.06</ele>
        <time>2017-10-12T09:53:43Z</time>
      </trkpt>
      <trkpt lat="45.23889" lon="5.58147">
        <ele>1407.81</ele>
        <time>2017-10-12T09:53:46Z</time>
      </trkpt>
      <trkpt lat="45.23873" lon="5.58124">
        <ele>1406.16</ele>
        <time>2017-10-12T09:53:49Z</time>
      </trkpt>
      <trkpt lat="45.23854" lon="5.58105">
        <ele>1403.62</ele>
        <time>2017-10-12T09:53:52Z</time>
      </trkpt>
      <trkpt lat="45.23837" lon="5.581">
        <ele>1401.18</ele>
        <time>2017-10-12T09:53:55Z</time>
      </trkpt>
      <trkpt lat="45.23817" lon="5.58105">
        <ele>1397.5</ele>
        <time>2017-10-12T09:53:58Z</time>
      </trkpt>
      <trkpt lat="45.23794" lon="5.58114">
        <ele>1396.15</ele>
        <time>2017-10-12T09:54:01Z</time>
      </trkpt>
      <trkpt lat="45.23778" lon="5.58132">
        <ele>1394.17</ele>
        <time>2017-10-12T09:54:04Z</time>
      </trkpt>
      <trkpt lat="45.23779" lon="5.58163">
        <ele>1388.68</ele>
        <time>2017-10-12T09:54:09Z</time>
      </trkpt>
      <trkpt lat="45.2379" lon="5.58192">
        <ele>1387.4</ele>
        <time>2017-10-12T09:54:14Z</time>
      </trkpt>
      <trkpt lat="45.23804" lon="5.58217">
        <ele>1387.05</ele>
        <time>2017-10-12T09:54:19Z</time>
      </trkpt>
      <trkpt lat="45.23813" lon="5.58241">
        <ele>1389.04</ele>
        <time>2017-10-12T09:54:26Z</time>
      </trkpt>
      <trkpt lat="45.23824" lon="5.58266">
        <ele>1388.35</ele>
        <time>2017-10-12T09:54:32Z</time>
      </trkpt>
      <trkpt lat="45.23835" lon="5.58294">
        <ele>1388.05</ele>
        <time>2017-10-12T09:54:37Z</time>
      </trkpt>
      <trkpt lat="45.241" lon="5.58848">
        <ele>1376.15</ele>
        <time>2017-10-12T09:55:51Z</time>
      </trkpt>
      <trkpt lat="45.2412" lon="5.5885">
        <ele>1367.69</ele>
        <time>2017-10-12T09:55:54Z</time>
      </trkpt>
      <trkpt lat="45.24139" lon="5.5885">
        <ele>1366.58</ele>
        <time>2017-10-12T09:55:57Z</time>
      </trkpt>
      <trkpt lat="45.24159" lon="5.58854">
        <ele>1366.06</ele>
        <time>2017-10-12T09:56:00Z</time>
      </trkpt>
      <trkpt lat="45.2418" lon="5.58856">
        <ele>1365.9</ele>
        <time>2017-10-12T09:56:03Z</time>
      </trkpt>
      <trkpt lat="45.24198" lon="5.5885">
        <ele>1362.49</ele>
        <time>2017-10-12T09:56:06Z</time>
      </trkpt>
      <trkpt lat="45.24216" lon="5.58834">
        <ele>1360.18</ele>
        <time>2017-10-12T09:56:09Z</time>
      </trkpt>
      <trkpt lat="45.24234" lon="5.58815">
        <ele>1359.08</ele>
        <time>2017-10-12T09:56:12Z</time>
      </trkpt>
      <trkpt lat="45.24252" lon="5.58809">
        <ele>1358.35</ele>
        <time>2017-10-12T09:56:14Z</time>
      </trkpt>
      <trkpt lat="45.2427" lon="5.58807">
        <ele>1356.47</ele>
        <time>2017-10-12T09:56:16Z</time>
      </trkpt>
      <trkpt lat="45.24293" lon="5.58789">
        <ele>1354.45</ele>
        <time>2017-10-12T09:56:19Z</time>
      </trkpt>
      <trkpt lat="45.2431" lon="5.58778">
        <ele>1354.3</ele>
        <time>2017-10-12T09:56:21Z</time>
      </trkpt>
      <trkpt lat="45.24327" lon="5.58765">
        <ele>1352.67</ele>
        <time>2017-10-12T09:56:23Z</time>
      </trkpt>
      <trkpt lat="45.24342" lon="5.58748">
        <ele>1349.8</ele>
        <time>2017-10-12T09:56:25Z</time>
      </trkpt>
      <trkpt lat="45.2436" lon="5.58734">
        <ele>1347.12</ele>
        <time>2017-10-12T09:56:28Z</time>
      </trkpt>
      <trkpt lat="45.24381" lon="5.58726">
        <ele>1345.46</ele>
        <time>2017-10-12T09:56:32Z</time>
      </trkpt>
      <trkpt lat="45.24401" lon="5.58716">
        <ele>1344.09</ele>
        <time>2017-10-12T09:56:35Z</time>
      </trkpt>
      <trkpt lat="45.24418" lon="5.58709">
        <ele>1343.14</ele>
        <time>2017-10-12T09:56:37Z</time>
      </trkpt>
      <trkpt lat="45.24444" lon="5.58703">
        <ele>1343.11</ele>
        <time>2017-10-12T09:56:40Z</time>
      </trkpt>
      <trkpt lat="45.24463" lon="5.58708">
        <ele>1341.93</ele>
        <time>2017-10-12T09:56:42Z</time>
      </trkpt>
      <trkpt lat="45.24481" lon="5.5872">
        <ele>1340.43</ele>
        <time>2017-10-12T09:56:44Z</time>
      </trkpt>
      <trkpt lat="45.24498" lon="5.58733">
        <ele>1340.08</ele>
        <time>2017-10-12T09:56:46Z</time>
      </trkpt>
      <trkpt lat="45.24516" lon="5.58742">
        <ele>1338.44</ele>
        <time>2017-10-12T09:56:48Z</time>
      </trkpt>
      <trkpt lat="45.24541" lon="5.5875">
        <ele>1337.15</ele>
        <time>2017-10-12T09:56:51Z</time>
      </trkpt>
      <trkpt lat="45.24561" lon="5.58756">
        <ele>1337.05</ele>
        <time>2017-10-12T09:56:54Z</time>
      </trkpt>
      <trkpt lat="45.24582" lon="5.58759">
        <ele>1337.54</ele>
        <time>2017-10-12T09:56:57Z</time>
      </trkpt>
      <trkpt lat="45.24605" lon="5.58758">
        <ele>1334.42</ele>
        <time>2017-10-12T09:57:00Z</time>
      </trkpt>
      <trkpt lat="45.24629" lon="5.58754">
        <ele>1332.3</ele>
        <time>2017-10-12T09:57:03Z</time>
      </trkpt>
      <trkpt lat="45.24641" lon="5.58732">
        <ele>1326.89</ele>
        <time>2017-10-12T09:57:06Z</time>
      </trkpt>
      <trkpt lat="45.24647" lon="5.58707">
        <ele>1324.4</ele>
        <time>2017-10-12T09:57:09Z</time>
      </trkpt>
      <trkpt lat="45.24643" lon="5.58673">
        <ele>1325.81</ele>
        <time>2017-10-12T09:57:13Z</time>
      </trkpt>
      <trkpt lat="45.24633" lon="5.58648">
        <ele>1325.98</ele>
        <time>2017-10-12T09:57:16Z</time>
      </trkpt>
      <trkpt lat="45.24619" lon="5.5862">
        <ele>1325.35</ele>
        <time>2017-10-12T09:57:19Z</time>
      </trkpt>
      <trkpt lat="45.24611" lon="5.58585">
        <ele>1324.02</ele>
        <time>2017-10-12T09:57:22Z</time>
      </trkpt>
      <trkpt lat="45.24605" lon="5.58553">
        <ele>1320.49</ele>
        <time>2017-10-12T09:57:25Z</time>
      </trkpt>
      <trkpt lat="45.24597" lon="5.58527">
        <ele>1319.36</ele>
        <time>2017-10-12T09:57:28Z</time>
      </trkpt>
      <trkpt lat="45.24597" lon="5.585">
        <ele>1316.54</ele>
        <time>2017-10-12T09:57:31Z</time>
      </trkpt>
      <trkpt lat="45.24599" lon="5.58472">
        <ele>1315.43</ele>
        <time>2017-10-12T09:57:34Z</time>
      </trkpt>
      <trkpt lat="45.2459" lon="5.58445">
        <ele>1314.06</ele>
        <time>2017-10-12T09:57:38Z</time>
      </trkpt>
      <trkpt lat="45.24578" lon="5.58422">
        <ele>1312.15</ele>
        <time>2017-10-12T09:57:42Z</time>
      </trkpt>
      <trkpt lat="45.24567" lon="5.58398">
        <ele>1312.96</ele>
        <time>2017-10-12T09:57:47Z</time>
      </trkpt>
      <trkpt lat="45.2458" lon="5.58417">
        <ele>1305.36</ele>
        <time>2017-10-12T09:58:07Z</time>
      </trkpt>
      <trkpt lat="45.24587" lon="5.58443">
        <ele>1304.14</ele>
        <time>2017-10-12T09:58:13Z</time>
      </trkpt>
      <trkpt lat="45.24595" lon="5.58466">
        <ele>1298.81</ele>
        <time>2017-10-12T09:58:18Z</time>
      </trkpt>
      <trkpt lat="45.24597" lon="5.58495">
        <ele>1299.66</ele>
        <time>2017-10-12T09:58:24Z</time>
      </trkpt>
      <trkpt lat="45.24595" lon="5.58524">
        <ele>1299.76</ele>
        <time>2017-10-12T09:58:30Z</time>
      </trkpt>
      <trkpt lat="45.24601" lon="5.58552">
        <ele>1301.87</ele>
        <time>2017-10-12T09:58:37Z</time>
      </trkpt>
      <trkpt lat="45.24608" lon="5.58576">
        <ele>1302.11</ele>
        <time>2017-10-12T09:58:43Z</time>
      </trkpt>
      <trkpt lat="45.24613" lon="5.58601">
        <ele>1301.15</ele>
        <time>2017-10-12T09:58:49Z</time>
      </trkpt>
      <trkpt lat="45.2462" lon="5.58629">
        <ele>1302.95</ele>
        <time>2017-10-12T09:58:56Z</time>
      </trkpt>
      <trkpt lat="45.2463" lon="5.58654">
        <ele>1309.02</ele>
        <time>2017-10-12T09:59:03Z</time>
      </trkpt>
      <trkpt lat="45.24641" lon="5.58677">
        <ele>1311.4</ele>
        <time>2017-10-12T09:59:10Z</time>
      </trkpt>
      <trkpt lat="45.24652" lon="5.58697">
        <ele>1311.79</ele>
        <time>2017-10-12T09:59:16Z</time>
      </trkpt>
      <trkpt lat="45.24653" lon="5.58723">
        <ele>1312.66</ele>
        <time>2017-10-12T09:59:23Z</time>
      </trkpt>
      <trkpt lat="45.24649" lon="5.58749">
        <ele>1325.02</ele>
        <time>2017-10-12T09:59:41Z</time>
      </trkpt>
      <trkpt lat="45.24645" lon="5.58724">
        <ele>1321.44</ele>
        <time>2017-10-12T10:00:07Z</time>
      </trkpt>
      <trkpt lat="45.24658" lon="5.58704">
        <ele>1321.72</ele>
        <time>2017-10-12T10:00:19Z</time>
      </trkpt>
      <trkpt lat="45.2467" lon="5.58683">
        <ele>1319</ele>
        <time>2017-10-12T10:00:29Z</time>
      </trkpt>
      <trkpt lat="45.24688" lon="5.58678">
        <ele>1309.39</ele>
        <time>2017-10-12T10:00:37Z</time>
      </trkpt>
      <trkpt lat="45.24707" lon="5.58668">
        <ele>1310.05</ele>
        <time>2017-10-12T10:00:45Z</time>
      </trkpt>
      <trkpt lat="45.24724" lon="5.58675">
        <ele>1301.14</ele>
        <time>2017-10-12T10:04:08Z</time>
      </trkpt>
      <trkpt lat="45.24734" lon="5.58697">
        <ele>1302.05</ele>
        <time>2017-10-12T10:04:16Z</time>
      </trkpt>
      <trkpt lat="45.24743" lon="5.58721">
        <ele>1299.9</ele>
        <time>2017-10-12T10:04:29Z</time>
      </trkpt>
      <trkpt lat="45.24738" lon="5.58748">
        <ele>1294.06</ele>
        <time>2017-10-12T10:04:36Z</time>
      </trkpt>
      <trkpt lat="45.2473" lon="5.58772">
        <ele>1292.35</ele>
        <time>2017-10-12T10:04:48Z</time>
      </trkpt>
      <trkpt lat="45.24724" lon="5.58797">
        <ele>1293.74</ele>
        <time>2017-10-12T10:04:54Z</time>
      </trkpt>
      <trkpt lat="45.24728" lon="5.58825">
        <ele>1294.1</ele>
        <time>2017-10-12T10:05:03Z</time>
      </trkpt>
      <trkpt lat="45.24728" lon="5.58854">
        <ele>1288.11</ele>
        <time>2017-10-12T10:05:10Z</time>
      </trkpt>
      <trkpt lat="45.24719" lon="5.58881">
        <ele>1281.58</ele>
        <time>2017-10-12T10:05:16Z</time>
      </trkpt>
      <trkpt lat="45.2471" lon="5.58903">
        <ele>1272.83</ele>
        <time>2017-10-12T10:05:20Z</time>
      </trkpt>
      <trkpt lat="45.24708" lon="5.5893">
        <ele>1271.05</ele>
        <time>2017-10-12T10:05:25Z</time>
      </trkpt>
      <trkpt lat="45.24699" lon="5.58953">
        <ele>1269.15</ele>
        <time>2017-10-12T10:05:29Z</time>
      </trkpt>
      <trkpt lat="45.2469" lon="5.58975">
        <ele>1265.89</ele>
        <time>2017-10-12T10:05:33Z</time>
      </trkpt>
      <trkpt lat="45.24675" lon="5.58993">
        <ele>1259.7</ele>
        <time>2017-10-12T10:05:38Z</time>
      </trkpt>
      <trkpt lat="45.24659" lon="5.59008">
        <ele>1254.15</ele>
        <time>2017-10-12T10:07:04Z</time>
      </trkpt>
      <trkpt lat="45.24639" lon="5.59006">
        <ele>1243.27</ele>
        <time>2017-10-12T10:07:15Z</time>
      </trkpt>
      <trkpt lat="45.24625" lon="5.58988">
        <ele>1243.96</ele>
        <time>2017-10-12T10:07:23Z</time>
      </trkpt>
      <trkpt lat="45.24608" lon="5.58975">
        <ele>1244.93</ele>
        <time>2017-10-12T10:07:39Z</time>
      </trkpt>
      <trkpt lat="45.24589" lon="5.5898">
        <ele>1239.78</ele>
        <time>2017-10-12T10:07:45Z</time>
      </trkpt>
      <trkpt lat="45.24569" lon="5.58989">
        <ele>1233.75</ele>
        <time>2017-10-12T10:07:52Z</time>
      </trkpt>
      <trkpt lat="45.2455" lon="5.58996">
        <ele>1229.49</ele>
        <time>2017-10-12T10:08:00Z</time>
      </trkpt>
      <trkpt lat="45.24532" lon="5.58992">
        <ele>1220.38</ele>
        <time>2017-10-12T10:08:10Z</time>
      </trkpt>
      <trkpt lat="45.24511" lon="5.58995">
        <ele>1210.39</ele>
        <time>2017-10-12T10:08:19Z</time>
      </trkpt>
      <trkpt lat="45.24494" lon="5.58986">
        <ele>1198.95</ele>
        <time>2017-10-12T10:08:41Z</time>
      </trkpt>
      <trkpt lat="45.24475" lon="5.58981">
        <ele>1195.95</ele>
        <time>2017-10-12T10:08:58Z</time>
      </trkpt>
      <trkpt lat="45.24461" lon="5.58997">
        <ele>1199.76</ele>
        <time>2017-10-12T10:09:58Z</time>
      </trkpt>
      <trkpt lat="45.24456" lon="5.59023">
        <ele>1197.51</ele>
        <time>2017-10-12T10:10:07Z</time>
      </trkpt>
      <trkpt lat="45.24443" lon="5.59043">
        <ele>1188.03</ele>
        <time>2017-10-12T10:10:14Z</time>
      </trkpt>
      <trkpt lat="45.24427" lon="5.59067">
        <ele>1186.31</ele>
        <time>2017-10-12T10:10:17Z</time>
      </trkpt>
      <trkpt lat="45.24411" lon="5.59078">
        <ele>1181.09</ele>
        <time>2017-10-12T10:10:24Z</time>
      </trkpt>
      <trkpt lat="45.24393" lon="5.59083">
        <ele>1183.62</ele>
        <time>2017-10-12T10:10:42Z</time>
      </trkpt>
      <trkpt lat="45.2438" lon="5.59103">
        <ele>1187.2</ele>
        <time>2017-10-12T10:11:11Z</time>
      </trkpt>
      <trkpt lat="45.24382" lon="5.59133">
        <ele>1185.74</ele>
        <time>2017-10-12T10:11:22Z</time>
      </trkpt>
      <trkpt lat="45.24373" lon="5.59158">
        <ele>1181.56</ele>
        <time>2017-10-12T10:11:32Z</time>
      </trkpt>
      <trkpt lat="45.24359" lon="5.59183">
        <ele>1182.16</ele>
        <time>2017-10-12T10:11:43Z</time>
      </trkpt>
      <trkpt lat="45.24345" lon="5.59206">
        <ele>1176.37</ele>
        <time>2017-10-12T10:11:49Z</time>
      </trkpt>
      <trkpt lat="45.24341" lon="5.59233">
        <ele>1177.74</ele>
        <time>2017-10-12T10:11:54Z</time>
      </trkpt>
      <trkpt lat="45.24338" lon="5.5926">
        <ele>1174.37</ele>
        <time>2017-10-12T10:11:59Z</time>
      </trkpt>
      <trkpt lat="45.24333" lon="5.59288">
        <ele>1171.17</ele>
        <time>2017-10-12T10:12:06Z</time>
      </trkpt>
      <trkpt lat="45.2434" lon="5.59312">
        <ele>1167.53</ele>
        <time>2017-10-12T10:12:12Z</time>
      </trkpt>
      <trkpt lat="45.24338" lon="5.59338">
        <ele>1161.87</ele>
        <time>2017-10-12T10:12:19Z</time>
      </trkpt>
      <trkpt lat="45.24341" lon="5.59363">
        <ele>1157.35</ele>
        <time>2017-10-12T10:12:30Z</time>
      </trkpt>
      <trkpt lat="45.24324" lon="5.59376">
        <ele>1144.45</ele>
        <time>2017-10-12T10:13:06Z</time>
      </trkpt>
      <trkpt lat="45.24305" lon="5.59376">
        <ele>1138.34</ele>
        <time>2017-10-12T10:13:22Z</time>
      </trkpt>
      <trkpt lat="45.24286" lon="5.59377">
        <ele>1129.7</ele>
        <time>2017-10-12T10:13:34Z</time>
      </trkpt>
      <trkpt lat="45.24268" lon="5.59375">
        <ele>1122.97</ele>
        <time>2017-10-12T10:13:43Z</time>
      </trkpt>
      <trkpt lat="45.2425" lon="5.59365">
        <ele>1107.26</ele>
        <time>2017-10-12T10:15:22Z</time>
      </trkpt>
      <trkpt lat="45.24246" lon="5.59391">
        <ele>1109.15</ele>
        <time>2017-10-12T10:15:38Z</time>
      </trkpt>
      <trkpt lat="45.24245" lon="5.59417">
        <ele>1102.77</ele>
        <time>2017-10-12T10:15:54Z</time>
      </trkpt>
      <trkpt lat="45.24244" lon="5.59443">
        <ele>1095.52</ele>
        <time>2017-10-12T10:16:08Z</time>
      </trkpt>
      <trkpt lat="45.24247" lon="5.59468">
        <ele>1090.38</ele>
        <time>2017-10-12T10:16:20Z</time>
      </trkpt>
      <trkpt lat="45.24251" lon="5.59494">
        <ele>1050.98</ele>
        <time>2017-10-12T10:16:48Z</time>
      </trkpt>
      <trkpt lat="45.24249" lon="5.5952">
        <ele>1039.81</ele>
        <time>2017-10-12T10:17:36Z</time>
      </trkpt>
      <trkpt lat="45.24231" lon="5.59536">
        <ele>1032.76</ele>
        <time>2017-10-12T10:17:53Z</time>
      </trkpt>
      <trkpt lat="45.24218" lon="5.59555">
        <ele>1029.83</ele>
        <time>2017-10-12T10:18:01Z</time>
      </trkpt>
      <trkpt lat="45.24209" lon="5.59579">
        <ele>1021.4</ele>
        <time>2017-10-12T10:18:09Z</time>
      </trkpt>
      <trkpt lat="45.24195" lon="5.59596">
        <ele>1018.11</ele>
        <time>2017-10-12T10:18:16Z</time>
      </trkpt>
      <trkpt lat="45.2418" lon="5.59611">
        <ele>1013.26</ele>
        <time>2017-10-12T10:18:22Z</time>
      </trkpt>
      <trkpt lat="45.24163" lon="5.59619">
        <ele>1011.75</ele>
        <time>2017-10-12T10:18:31Z</time>
      </trkpt>
      <trkpt lat="45.24145" lon="5.59627">
        <ele>1008.24</ele>
        <time>2017-10-12T10:18:39Z</time>
      </trkpt>
      <trkpt lat="45.24126" lon="5.59629">
        <ele>997.1</ele>
        <time>2017-10-12T10:18:50Z</time>
      </trkpt>
      <trkpt lat="45.24108" lon="5.59631">
        <ele>992.06</ele>
        <time>2017-10-12T10:19:05Z</time>
      </trkpt>
      <trkpt lat="45.24103" lon="5.59657">
        <ele>998.73</ele>
        <time>2017-10-12T10:20:09Z</time>
      </trkpt>
      <trkpt lat="45.24106" lon="5.59683">
        <ele>996.05</ele>
        <time>2017-10-12T10:21:25Z</time>
      </trkpt>
      <trkpt lat="45.241" lon="5.59709">
        <ele>990.75</ele>
        <time>2017-10-12T10:21:32Z</time>
      </trkpt>
      <trkpt lat="45.24089" lon="5.5973">
        <ele>975.38</ele>
        <time>2017-10-12T10:21:39Z</time>
      </trkpt>
      <trkpt lat="45.24084" lon="5.59757">
        <ele>981.05</ele>
        <time>2017-10-12T10:21:47Z</time>
      </trkpt>
      <trkpt lat="45.24079" lon="5.59783">
        <ele>984.93</ele>
        <time>2017-10-12T10:21:58Z</time>
      </trkpt>
      <trkpt lat="45.24072" lon="5.59812">
        <ele>978.48</ele>
        <time>2017-10-12T10:22:06Z</time>
      </trkpt>
      <trkpt lat="45.24061" lon="5.59833">
        <ele>972.95</ele>
        <time>2017-10-12T10:22:20Z</time>
      </trkpt>
      <trkpt lat="45.24046" lon="5.5985">
        <ele>965.16</ele>
        <time>2017-10-12T10:22:27Z</time>
      </trkpt>
      <trkpt lat="45.24052" lon="5.59875">
        <ele>970.65</ele>
        <time>2017-10-12T10:22:48Z</time>
      </trkpt>
      <trkpt lat="45.24063" lon="5.59896">
        <ele>974.55</ele>
        <time>2017-10-12T10:22:58Z</time>
      </trkpt>
      <trkpt lat="45.24069" lon="5.59921">
        <ele>981.62</ele>
        <time>2017-10-12T10:23:08Z</time>
      </trkpt>
      <trkpt lat="45.24065" lon="5.59949">
        <ele>982.69</ele>
        <time>2017-10-12T10:23:17Z</time>
      </trkpt>
      <trkpt lat="45.24069" lon="5.59975">
        <ele>983.3</ele>
        <time>2017-10-12T10:23:25Z</time>
      </trkpt>
      <trkpt lat="45.24063" lon="5.6">
        <ele>976.95</ele>
        <time>2017-10-12T10:23:40Z</time>
      </trkpt>
      <trkpt lat="45.24067" lon="5.60027">
        <ele>990.71</ele>
        <time>2017-10-12T10:23:53Z</time>
      </trkpt>
      <trkpt lat="45.24068" lon="5.60053">
        <ele>993.73</ele>
        <time>2017-10-12T10:24:03Z</time>
      </trkpt>
      <trkpt lat="45.24062" lon="5.60078">
        <ele>989.51</ele>
        <time>2017-10-12T10:24:10Z</time>
      </trkpt>
      <trkpt lat="45.24048" lon="5.601">
        <ele>983.67</ele>
        <time>2017-10-12T10:24:17Z</time>
      </trkpt>
      <trkpt lat="45.24038" lon="5.60124">
        <ele>987.72</ele>
        <time>2017-10-12T10:24:25Z</time>
      </trkpt>
      <trkpt lat="45.24025" lon="5.60142">
        <ele>987.49</ele>
        <time>2017-10-12T10:24:48Z</time>
      </trkpt>
      <trkpt lat="45.2402" lon="5.60167">
        <ele>996.8</ele>
        <time>2017-10-12T10:25:19Z</time>
      </trkpt>
      <trkpt lat="45.24005" lon="5.60182">
        <ele>988.04</ele>
        <time>2017-10-12T10:25:27Z</time>
      </trkpt>
      <trkpt lat="45.23997" lon="5.60207">
        <ele>975.57</ele>
        <time>2017-10-12T10:25:36Z</time>
      </trkpt>
      <trkpt lat="45.23989" lon="5.60231">
        <ele>972.9</ele>
        <time>2017-10-12T10:25:49Z</time>
      </trkpt>
      <trkpt lat="45.23991" lon="5.60258">
        <ele>981.63</ele>
        <time>2017-10-12T10:25:56Z</time>
      </trkpt>
      <trkpt lat="45.23988" lon="5.60283">
        <ele>989.78</ele>
        <time>2017-10-12T10:26:02Z</time>
      </trkpt>
      <trkpt lat="45.23984" lon="5.6031">
        <ele>995</ele>
        <time>2017-10-12T10:26:11Z</time>
      </trkpt>
      <trkpt lat="45.2398" lon="5.60337">
        <ele>996.05</ele>
        <time>2017-10-12T10:26:19Z</time>
      </trkpt>
      <trkpt lat="45.23978" lon="5.60364">
        <ele>991.27</ele>
        <time>2017-10-12T10:26:27Z</time>
      </trkpt>
      <trkpt lat="45.23973" lon="5.6039">
        <ele>984.42</ele>
        <time>2017-10-12T10:26:36Z</time>
      </trkpt>
      <trkpt lat="45.23963" lon="5.60412">
        <ele>978.03</ele>
        <time>2017-10-12T10:26:43Z</time>
      </trkpt>
      <trkpt lat="45.23963" lon="5.60438">
        <ele>980.76</ele>
        <time>2017-10-12T10:26:50Z</time>
      </trkpt>
      <trkpt lat="45.23966" lon="5.60465">
        <ele>982.03</ele>
        <time>2017-10-12T10:26:55Z</time>
      </trkpt>
      <trkpt lat="45.23967" lon="5.60493">
        <ele>980.06</ele>
        <time>2017-10-12T10:27:01Z</time>
      </trkpt>
      <trkpt lat="45.23969" lon="5.60523">
        <ele>976.44</ele>
        <time>2017-10-12T10:27:07Z</time>
      </trkpt>
      <trkpt lat="45.23968" lon="5.60552">
        <ele>970.57</ele>
        <time>2017-10-12T10:27:13Z</time>
      </trkpt>
      <trkpt lat="45.23968" lon="5.60579">
        <ele>965.75</ele>
        <time>2017-10-12T10:27:18Z</time>
      </trkpt>
      <trkpt lat="45.23969" lon="5.60606">
        <ele>950.67</ele>
        <time>2017-10-12T10:27:24Z</time>
      </trkpt>
      <trkpt lat="45.23968" lon="5.60634">
        <ele>946.45</ele>
        <time>2017-10-12T10:27:30Z</time>
      </trkpt>
      <trkpt lat="45.23975" lon="5.6066">
        <ele>943.18</ele>
        <time>2017-10-12T10:27:34Z</time>
      </trkpt>
      <trkpt lat="45.23976" lon="5.60693">
        <ele>940.24</ele>
        <time>2017-10-12T10:27:39Z</time>
      </trkpt>
      <trkpt lat="45.23974" lon="5.60722">
        <ele>934.61</ele>
        <time>2017-10-12T10:27:42Z</time>
      </trkpt>
      <trkpt lat="45.23977" lon="5.60751">
        <ele>933.63</ele>
        <time>2017-10-12T10:27:47Z</time>
      </trkpt>
      <trkpt lat="45.2398" lon="5.6078">
        <ele>927.05</ele>
        <time>2017-10-12T10:28:31Z</time>
      </trkpt>
      <trkpt lat="45.23978" lon="5.60806">
        <ele>924.27</ele>
        <time>2017-10-12T10:30:07Z</time>
      </trkpt>
      <trkpt lat="45.23977" lon="5.60833">
        <ele>918.35</ele>
        <time>2017-10-12T10:30:13Z</time>
      </trkpt>
      <trkpt lat="45.23975" lon="5.6086">
        <ele>920.85</ele>
        <time>2017-10-12T10:30:20Z</time>
      </trkpt>
      <trkpt lat="45.23974" lon="5.60887">
        <ele>920.07</ele>
        <time>2017-10-12T10:30:27Z</time>
      </trkpt>
      <trkpt lat="45.23961" lon="5.60907">
        <ele>914.83</ele>
        <time>2017-10-12T10:30:32Z</time>
      </trkpt>
      <trkpt lat="45.23953" lon="5.60937">
        <ele>909.09</ele>
        <time>2017-10-12T10:30:37Z</time>
      </trkpt>
      <trkpt lat="45.23948" lon="5.60961">
        <ele>906.55</ele>
        <time>2017-10-12T10:30:41Z</time>
      </trkpt>
      <trkpt lat="45.23941" lon="5.60987">
        <ele>897.82</ele>
        <time>2017-10-12T10:30:46Z</time>
      </trkpt>
      <trkpt lat="45.23937" lon="5.61015">
        <ele>885.5</ele>
        <time>2017-10-12T10:30:52Z</time>
      </trkpt>
      <trkpt lat="45.23938" lon="5.61045">
        <ele>881.38</ele>
        <time>2017-10-12T10:30:56Z</time>
      </trkpt>
      <trkpt lat="45.23947" lon="5.61066">
        <ele>883.36</ele>
        <time>2017-10-12T10:31:13Z</time>
      </trkpt>
      <trkpt lat="45.23968" lon="5.61076">
        <ele>876.57</ele>
        <time>2017-10-12T10:31:20Z</time>
      </trkpt>
      <trkpt lat="45.23979" lon="5.61103">
        <ele>872.21</ele>
        <time>2017-10-12T10:31:24Z</time>
      </trkpt>
      <trkpt lat="45.23983" lon="5.61128">
        <ele>864.81</ele>
        <time>2017-10-12T10:31:29Z</time>
      </trkpt>
      <trkpt lat="45.23982" lon="5.61158">
        <ele>856.58</ele>
        <time>2017-10-12T10:31:34Z</time>
      </trkpt>
      <trkpt lat="45.23994" lon="5.6118">
        <ele>857.02</ele>
        <time>2017-10-12T10:31:39Z</time>
      </trkpt>
      <trkpt lat="45.23991" lon="5.61209">
        <ele>852.2</ele>
        <time>2017-10-12T10:31:50Z</time>
      </trkpt>
      <trkpt lat="45.24" lon="5.61234">
        <ele>847.36</ele>
        <time>2017-10-12T10:31:56Z</time>
      </trkpt>
      <trkpt lat="45.23985" lon="5.61248">
        <ele>844.05</ele>
        <time>2017-10-12T10:32:03Z</time>
      </trkpt>
      <trkpt lat="45.23969" lon="5.61263">
        <ele>838.75</ele>
        <time>2017-10-12T10:32:08Z</time>
      </trkpt>
      <trkpt lat="45.23958" lon="5.61288">
        <ele>834.59</ele>
        <time>2017-10-12T10:32:13Z</time>
      </trkpt>
      <trkpt lat="45.23966" lon="5.61315">
        <ele>826.03</ele>
        <time>2017-10-12T10:32:18Z</time>
      </trkpt>
      <trkpt lat="45.23978" lon="5.61334">
        <ele>817.1</ele>
        <time>2017-10-12T10:32:24Z</time>
      </trkpt>
      <trkpt lat="45.23991" lon="5.61353">
        <ele>739.25</ele>
        <time>2017-10-12T10:32:28Z</time>
      </trkpt>
      <trkpt lat="45.24004" lon="5.61376">
        <ele>790.93</ele>
        <time>2017-10-12T10:32:35Z</time>
      </trkpt>
      <trkpt lat="45.24014" lon="5.61397">
        <ele>798.42</ele>
        <time>2017-10-12T10:32:49Z</time>
      </trkpt>
      <trkpt lat="45.24005" lon="5.6142">
        <ele>784.15</ele>
        <time>2017-10-12T10:35:13Z</time>
      </trkpt>
      <trkpt lat="45.23985" lon="5.61421">
        <ele>780.25</ele>
        <time>2017-10-12T10:35:25Z</time>
      </trkpt>
      <trkpt lat="45.23967" lon="5.61415">
        <ele>774.05</ele>
        <time>2017-10-12T10:35:40Z</time>
      </trkpt>
      <trkpt lat="45.23947" lon="5.61409">
        <ele>770.08</ele>
        <time>2017-10-12T10:35:51Z</time>
      </trkpt>
      <trkpt lat="45.2393" lon="5.61415">
        <ele>756.42</ele>
        <time>2017-10-12T10:36:19Z</time>
      </trkpt>
      <trkpt lat="45.23941" lon="5.61437">
        <ele>753.84</ele>
        <time>2017-10-12T10:36:29Z</time>
      </trkpt>
      <trkpt lat="45.23942" lon="5.61464">
        <ele>740.26</ele>
        <time>2017-10-12T10:36:59Z</time>
      </trkpt>
      <trkpt lat="45.23939" lon="5.6149">
        <ele>728.58</ele>
        <time>2017-10-12T10:37:12Z</time>
      </trkpt>
      <trkpt lat="45.23925" lon="5.61508">
        <ele>714.03</ele>
        <time>2017-10-12T10:37:34Z</time>
      </trkpt>
      <trkpt lat="45.2394" lon="5.61523">
        <ele>709.34</ele>
        <time>2017-10-12T10:37:44Z</time>
      </trkpt>
      <trkpt lat="45.23954" lon="5.61548">
        <ele>709.64</ele>
        <time>2017-10-12T10:37:49Z</time>
      </trkpt>
      <trkpt lat="45.23958" lon="5.61575">
        <ele>708.16</ele>
        <time>2017-10-12T10:37:53Z</time>
      </trkpt>
      <trkpt lat="45.23972" lon="5.61595">
        <ele>699.68</ele>
        <time>2017-10-12T10:37:59Z</time>
      </trkpt>
      <trkpt lat="45.23969" lon="5.6162">
        <ele>693.6</ele>
        <time>2017-10-12T10:38:03Z</time>
      </trkpt>
      <trkpt lat="45.23956" lon="5.61642">
        <ele>684.52</ele>
        <time>2017-10-12T10:38:08Z</time>
      </trkpt>
      <trkpt lat="45.23937" lon="5.61632">
        <ele>676.09</ele>
        <time>2017-10-12T10:38:16Z</time>
      </trkpt>
      <trkpt lat="45.23922" lon="5.61611">
        <ele>675.69</ele>
        <time>2017-10-12T10:38:22Z</time>
      </trkpt>
      <trkpt lat="45.23904" lon="5.616">
        <ele>679.25</ele>
        <time>2017-10-12T10:38:29Z</time>
      </trkpt>
      <trkpt lat="45.23886" lon="5.61611">
        <ele>678.51</ele>
        <time>2017-10-12T10:38:33Z</time>
      </trkpt>
      <trkpt lat="45.23868" lon="5.61629">
        <ele>681.72</ele>
        <time>2017-10-12T10:38:38Z</time>
      </trkpt>
      <trkpt lat="45.23855" lon="5.61652">
        <ele>684.83</ele>
        <time>2017-10-12T10:38:44Z</time>
      </trkpt>
      <trkpt lat="45.23841" lon="5.61675">
        <ele>684.84</ele>
        <time>2017-10-12T10:38:48Z</time>
      </trkpt>
      <trkpt lat="45.23825" lon="5.61699">
        <ele>686.68</ele>
        <time>2017-10-12T10:38:53Z</time>
      </trkpt>
      <trkpt lat="45.23809" lon="5.61722">
        <ele>687.25</ele>
        <time>2017-10-12T10:38:58Z</time>
      </trkpt>
      <trkpt lat="45.23792" lon="5.61744">
        <ele>689.15</ele>
        <time>2017-10-12T10:39:02Z</time>
      </trkpt>
      <trkpt lat="45.23775" lon="5.61757">
        <ele>684.53</ele>
        <time>2017-10-12T10:39:06Z</time>
      </trkpt>
      <trkpt lat="45.23756" lon="5.61771">
        <ele>681.16</ele>
        <time>2017-10-12T10:39:11Z</time>
      </trkpt>
      <trkpt lat="45.2374" lon="5.6179">
        <ele>681.02</ele>
        <time>2017-10-12T10:39:16Z</time>
      </trkpt>
      <trkpt lat="45.23726" lon="5.61813">
        <ele>681.34</ele>
        <time>2017-10-12T10:39:22Z</time>
      </trkpt>
      <trkpt lat="45.23714" lon="5.61843">
        <ele>690.55</ele>
        <time>2017-10-12T10:39:27Z</time>
      </trkpt>
      <trkpt lat="45.23699" lon="5.61867">
        <ele>692.45</ele>
        <time>2017-10-12T10:39:32Z</time>
      </trkpt>
      <trkpt lat="45.23681" lon="5.61883">
        <ele>692.22</ele>
        <time>2017-10-12T10:39:38Z</time>
      </trkpt>
      <trkpt lat="45.23671" lon="5.61905">
        <ele>688.91</ele>
        <time>2017-10-12T10:39:42Z</time>
      </trkpt>
      <trkpt lat="45.2366" lon="5.61927">
        <ele>685.49</ele>
        <time>2017-10-12T10:39:45Z</time>
      </trkpt>
      <trkpt lat="45.23643" lon="5.61943">
        <ele>677.9</ele>
        <time>2017-10-12T10:39:49Z</time>
      </trkpt>
      <trkpt lat="45.23639" lon="5.6197">
        <ele>674.96</ele>
        <time>2017-10-12T10:39:59Z</time>
      </trkpt>
      <trkpt lat="45.23647" lon="5.61994">
        <ele>672.19</ele>
        <time>2017-10-12T10:40:05Z</time>
      </trkpt>
      <trkpt lat="45.23638" lon="5.62016">
        <ele>657.67</ele>
        <time>2017-10-12T10:40:16Z</time>
      </trkpt>
      <trkpt lat="45.23639" lon="5.62045">
        <ele>648.34</ele>
        <time>2017-10-12T10:40:30Z</time>
      </trkpt>
      <trkpt lat="45.23626" lon="5.62066">
        <ele>640.38</ele>
        <time>2017-10-12T10:40:59Z</time>
      </trkpt>
      <trkpt lat="45.23633" lon="5.62092">
        <ele>630.53</ele>
        <time>2017-10-12T10:41:18Z</time>
      </trkpt>
      <trkpt lat="45.23642" lon="5.62118">
        <ele>625.62</ele>
        <time>2017-10-12T10:41:25Z</time>
      </trkpt>
      <trkpt lat="45.23626" lon="5.62131">
        <ele>624.43</ele>
        <time>2017-10-12T10:41:40Z</time>
      </trkpt>
      <trkpt lat="45.23606" lon="5.62133">
        <ele>623.31</ele>
        <time>2017-10-12T10:41:57Z</time>
      </trkpt>
      <trkpt lat="45.23589" lon="5.62145">
        <ele>618.38</ele>
        <time>2017-10-12T10:42:05Z</time>
      </trkpt>
      <trkpt lat="45.23571" lon="5.62159">
        <ele>612.79</ele>
        <time>2017-10-12T10:42:12Z</time>
      </trkpt>
      <trkpt lat="45.23552" lon="5.6217">
        <ele>602.61</ele>
        <time>2017-10-12T10:42:19Z</time>
      </trkpt>
      <trkpt lat="45.23533" lon="5.62174">
        <ele>597.41</ele>
        <time>2017-10-12T10:42:26Z</time>
      </trkpt>
      <trkpt lat="45.23515" lon="5.62177">
        <ele>592.45</ele>
        <time>2017-10-12T10:42:31Z</time>
      </trkpt>
      <trkpt lat="45.23506" lon="5.62199">
        <ele>589.33</ele>
        <time>2017-10-12T10:42:36Z</time>
      </trkpt>
      <trkpt lat="45.23492" lon="5.62226">
        <ele>586.52</ele>
        <time>2017-10-12T10:42:41Z</time>
      </trkpt>
      <trkpt lat="45.23484" lon="5.62254">
        <ele>584.45</ele>
        <time>2017-10-12T10:42:44Z</time>
      </trkpt>
      <trkpt lat="45.23475" lon="5.62279">
        <ele>579.47</ele>
        <time>2017-10-12T10:42:47Z</time>
      </trkpt>
      <trkpt lat="45.23488" lon="5.623">
        <ele>564.17</ele>
        <time>2017-10-12T10:43:00Z</time>
      </trkpt>
      <trkpt lat="45.23491" lon="5.62327">
        <ele>562.94</ele>
        <time>2017-10-12T10:43:08Z</time>
      </trkpt>
      <trkpt lat="45.23494" lon="5.62357">
        <ele>558.85</ele>
        <time>2017-10-12T10:43:14Z</time>
      </trkpt>
      <trkpt lat="45.23477" lon="5.62374">
        <ele>556.3</ele>
        <time>2017-10-12T10:43:21Z</time>
      </trkpt>
      <trkpt lat="45.2346" lon="5.62384">
        <ele>557.5</ele>
        <time>2017-10-12T10:43:29Z</time>
      </trkpt>
      <trkpt lat="45.23439" lon="5.62383">
        <ele>551.28</ele>
        <time>2017-10-12T10:43:36Z</time>
      </trkpt>
      <trkpt lat="45.23421" lon="5.62369">
        <ele>542.79</ele>
        <time>2017-10-12T10:43:43Z</time>
      </trkpt>
      <trkpt lat="45.23403" lon="5.62355">
        <ele>546.41</ele>
        <time>2017-10-12T10:43:48Z</time>
      </trkpt>
      <trkpt lat="45.23386" lon="5.62341">
        <ele>549.62</ele>
        <time>2017-10-12T10:43:54Z</time>
      </trkpt>
      <trkpt lat="45.23369" lon="5.6233">
        <ele>551.85</ele>
        <time>2017-10-12T10:44:00Z</time>
      </trkpt>
      <trkpt lat="45.23351" lon="5.62325">
        <ele>549.7</ele>
        <time>2017-10-12T10:44:12Z</time>
      </trkpt>
      <trkpt lat="45.23332" lon="5.62321">
        <ele>558.62</ele>
        <time>2017-10-12T10:44:20Z</time>
      </trkpt>
      <trkpt lat="45.23325" lon="5.62346">
        <ele>561.05</ele>
        <time>2017-10-12T10:44:30Z</time>
      </trkpt>
      <trkpt lat="45.23339" lon="5.62364">
        <ele>552.71</ele>
        <time>2017-10-12T10:44:40Z</time>
      </trkpt>
      <trkpt lat="45.23351" lon="5.62392">
        <ele>542.41</ele>
        <time>2017-10-12T10:44:46Z</time>
      </trkpt>
      <trkpt lat="45.23358" lon="5.6242">
        <ele>538.78</ele>
        <time>2017-10-12T10:44:49Z</time>
      </trkpt>
      <trkpt lat="45.23359" lon="5.62448">
        <ele>534.58</ele>
        <time>2017-10-12T10:44:52Z</time>
      </trkpt>
      <trkpt lat="45.2335" lon="5.62471">
        <ele>519.35</ele>
        <time>2017-10-12T10:45:11Z</time>
      </trkpt>
      <trkpt lat="45.23331" lon="5.62475">
        <ele>512.15</ele>
        <time>2017-10-12T10:45:21Z</time>
      </trkpt>
      <trkpt lat="45.23313" lon="5.62478">
        <ele>513.27</ele>
        <time>2017-10-12T10:45:32Z</time>
      </trkpt>
      <trkpt lat="45.233" lon="5.62497">
        <ele>503.2</ele>
        <time>2017-10-12T10:45:44Z</time>
      </trkpt>
      <trkpt lat="45.23306" lon="5.62522">
        <ele>490.74</ele>
        <time>2017-10-12T10:46:03Z</time>
      </trkpt>
      <trkpt lat="45.23296" lon="5.62544">
        <ele>484.98</ele>
        <time>2017-10-12T10:46:15Z</time>
      </trkpt>
      <trkpt lat="45.23299" lon="5.62571">
        <ele>486.83</ele>
        <time>2017-10-12T10:46:24Z</time>
      </trkpt>
      <trkpt lat="45.23312" lon="5.6259">
        <ele>479.05</ele>
        <time>2017-10-12T10:46:47Z</time>
      </trkpt>
      <trkpt lat="45.23327" lon="5.62605">
        <ele>475.44</ele>
        <time>2017-10-12T10:47:07Z</time>
      </trkpt>
      <trkpt lat="45.23333" lon="5.62632">
        <ele>460.13</ele>
        <time>2017-10-12T10:47:23Z</time>
      </trkpt>
      <trkpt lat="45.23351" lon="5.62646">
        <ele>453.77</ele>
        <time>2017-10-12T10:47:41Z</time>
      </trkpt>
      <trkpt lat="45.23367" lon="5.62658">
        <ele>448.59</ele>
        <time>2017-10-12T10:47:51Z</time>
      </trkpt>
      <trkpt lat="45.23383" lon="5.62676">
        <ele>440.78</ele>
        <time>2017-10-12T10:48:03Z</time>
      </trkpt>
      <trkpt lat="45.23389" lon="5.62701">
        <ele>438.28</ele>
        <time>2017-10-12T10:48:11Z</time>
      </trkpt>
      <trkpt lat="45.23395" lon="5.62726">
        <ele>430.42</ele>
        <time>2017-10-12T10:48:25Z</time>
      </trkpt>
      <trkpt lat="45.23412" lon="5.62716">
        <ele>429.67</ele>
        <time>2017-10-12T10:48:38Z</time>
      </trkpt>
      <trkpt lat="45.23425" lon="5.62738">
        <ele>419.77</ele>
        <time>2017-10-12T10:48:50Z</time>
      </trkpt>
      <trkpt lat="45.23441" lon="5.62724">
        <ele>409.54</ele>
        <time>2017-10-12T10:48:58Z</time>
      </trkpt>
      <trkpt lat="45.23459" lon="5.62729">
        <ele>394.05</ele>
        <time>2017-10-12T10:49:22Z</time>
      </trkpt>
      <trkpt lat="45.23472" lon="5.62747">
        <ele>389.98</ele>
        <time>2017-10-12T10:52:23Z</time>
      </trkpt>
      <trkpt lat="45.2348" lon="5.6277">
        <ele>377.99</ele>
        <time>2017-10-12T10:52:44Z</time>
      </trkpt>
      <trkpt lat="45.23493" lon="5.62792">
        <ele>359.99</ele>
        <time>2017-10-12T10:53:05Z</time>
      </trkpt>
      <trkpt lat="45.23501" lon="5.62815">
        <ele>358.94</ele>
        <time>2017-10-12T10:53:16Z</time>
      </trkpt>
      <trkpt lat="45.23513" lon="5.62836">
        <ele>363.77</ele>
        <time>2017-10-12T10:53:31Z</time>
      </trkpt>
      <trkpt lat="45.23531" lon="5.62845">
        <ele>362.39</ele>
        <time>2017-10-12T10:53:44Z</time>
      </trkpt>
      <trkpt lat="45.23536" lon="5.6287">
        <ele>357.97</ele>
        <time>2017-10-12T10:53:54Z</time>
      </trkpt>
      <trkpt lat="45.23551" lon="5.62886">
        <ele>351.89</ele>
        <time>2017-10-12T10:54:04Z</time>
      </trkpt>
      <trkpt lat="45.2357" lon="5.62884">
        <ele>341.19</ele>
        <time>2017-10-12T10:54:16Z</time>
      </trkpt>
      <trkpt lat="45.23577" lon="5.62908">
        <ele>333.31</ele>
        <time>2017-10-12T10:54:29Z</time>
      </trkpt>
      <trkpt lat="45.23587" lon="5.62929">
        <ele>320.05</ele>
        <time>2017-10-12T10:54:43Z</time>
      </trkpt>
      <trkpt lat="45.23601" lon="5.6295">
        <ele>313.83</ele>
        <time>2017-10-12T10:54:54Z</time>
      </trkpt>
      <trkpt lat="45.23619" lon="5.62955">
        <ele>300.84</ele>
        <time>2017-10-12T10:55:14Z</time>
      </trkpt>
      <trkpt lat="45.23638" lon="5.62952">
        <ele>298.71</ele>
        <time>2017-10-12T10:55:28Z</time>
      </trkpt>
      <trkpt lat="45.23657" lon="5.62958">
        <ele>293.53</ele>
        <time>2017-10-12T10:55:34Z</time>
      </trkpt>
      <trkpt lat="45.23675" lon="5.62953">
        <ele>286.44</ele>
        <time>2017-10-12T10:55:46Z</time>
      </trkpt>
      <trkpt lat="45.23693" lon="5.6296">
        <ele>282.47</ele>
        <time>2017-10-12T10:55:52Z</time>
      </trkpt>
      <trkpt lat="45.23713" lon="5.6297">
        <ele>279.82</ele>
        <time>2017-10-12T10:56:00Z</time>
      </trkpt>
      <trkpt lat="45.23731" lon="5.62976">
        <ele>273.26</ele>
        <time>2017-10-12T10:56:11Z</time>
      </trkpt>
      <trkpt lat="45.2375" lon="5.62979">
        <ele>266.06</ele>
        <time>2017-10-12T10:56:23Z</time>
      </trkpt>
      <trkpt lat="45.23768" lon="5.62985">
        <ele>270.42</ele>
        <time>2017-10-12T10:56:28Z</time>
      </trkpt>
      <trkpt lat="45.23779" lon="5.63006">
        <ele>265.26</ele>
        <time>2017-10-12T10:56:42Z</time>
      </trkpt>
      <trkpt lat="45.2378" lon="5.63034">
        <ele>260.64</ele>
        <time>2017-10-12T10:56:53Z</time>
      </trkpt>
      <trkpt lat="45.23783" lon="5.63059">
        <ele>257.77</ele>
        <time>2017-10-12T10:57:01Z</time>
      </trkpt>
      <trkpt lat="45.23796" lon="5.63079">
        <ele>255.13</ele>
        <time>2017-10-12T10:57:07Z</time>
      </trkpt>
      <trkpt lat="45.23807" lon="5.631">
        <ele>246.42</ele>
        <time>2017-10-12T10:57:17Z</time>
      </trkpt>
      <trkpt lat="45.23824" lon="5.63114">
        <ele>238.43</ele>
        <time>2017-10-12T10:57:33Z</time>
      </trkpt>
      <trkpt lat="45.23841" lon="5.63128">
        <ele>232.71</ele>
        <time>2017-10-12T10:57:38Z</time>
      </trkpt>
      <trkpt lat="45.23857" lon="5.6314">
        <ele>231.97</ele>
        <time>2017-10-12T10:57:42Z</time>
      </trkpt>
      <trkpt lat="45.23871" lon="5.63157">
        <ele>228.54</ele>
        <time>2017-10-12T10:57:46Z</time>
      </trkpt>
      <trkpt lat="45.2388" lon="5.63181">
        <ele>224.27</ele>
        <time>2017-10-12T10:57:50Z</time>
      </trkpt>
      <trkpt lat="45.23899" lon="5.63199">
        <ele>217.97</ele>
        <time>2017-10-12T10:57:54Z</time>
      </trkpt>
      <trkpt lat="45.23921" lon="5.63206">
        <ele>212.82</ele>
        <time>2017-10-12T10:57:57Z</time>
      </trkpt>
      <trkpt lat="45.23943" lon="5.63222">
        <ele>209.21</ele>
        <time>2017-10-12T10:58:00Z</time>
      </trkpt>
      <trkpt lat="45.23962" lon="5.63239">
        <ele>206.47</ele>
        <time>2017-10-12T10:58:03Z</time>
      </trkpt>
      <trkpt lat="45.23977" lon="5.63255">
        <ele>206.06</ele>
        <time>2017-10-12T10:58:06Z</time>
      </trkpt>
      <trkpt lat="45.23986" lon="5.63282">
        <ele>202.47</ele>
        <time>2017-10-12T10:58:10Z</time>
      </trkpt>
      <trkpt lat="45.24006" lon="5.63283">
        <ele>199.21</ele>
        <time>2017-10-12T10:58:21Z</time>
      </trkpt>
      <trkpt lat="45.24024" lon="5.63273">
        <ele>197.16</ele>
        <time>2017-10-12T10:58:26Z</time>
      </trkpt>
      <trkpt lat="45.24044" lon="5.6326">
        <ele>197.73</ele>
        <time>2017-10-12T10:58:31Z</time>
      </trkpt>
      <trkpt lat="45.24064" lon="5.63249">
        <ele>197.06</ele>
        <time>2017-10-12T10:58:36Z</time>
      </trkpt>
      <trkpt lat="45.24082" lon="5.6324">
        <ele>195.85</ele>
        <time>2017-10-12T10:58:40Z</time>
      </trkpt>
      <trkpt lat="45.241" lon="5.63232">
        <ele>197.93</ele>
        <time>2017-10-12T10:58:44Z</time>
      </trkpt>
      <trkpt lat="45.2412" lon="5.63222">
        <ele>198.13</ele>
        <time>2017-10-12T10:58:48Z</time>
      </trkpt>
      <trkpt lat="45.2414" lon="5.63213">
        <ele>198.94</ele>
        <time>2017-10-12T10:58:52Z</time>
      </trkpt>
      <trkpt lat="45.24161" lon="5.63204">
        <ele>196.68</ele>
        <time>2017-10-12T10:58:56Z</time>
      </trkpt>
      <trkpt lat="45.24184" lon="5.63203">
        <ele>196.82</ele>
        <time>2017-10-12T10:59:00Z</time>
      </trkpt>
      <trkpt lat="45.24204" lon="5.63206">
        <ele>197.03</ele>
        <time>2017-10-12T10:59:04Z</time>
      </trkpt>
      <trkpt lat="45.24223" lon="5.6321">
        <ele>196.53</ele>
        <time>2017-10-12T10:59:08Z</time>
      </trkpt>
      <trkpt lat="45.24243" lon="5.6321">
        <ele>195.22</ele>
        <time>2017-10-12T10:59:12Z</time>
      </trkpt>
      <trkpt lat="45.24263" lon="5.6321">
        <ele>194.08</ele>
        <time>2017-10-12T10:59:16Z</time>
      </trkpt>
      <trkpt lat="45.24281" lon="5.63204">
        <ele>194.66</ele>
        <time>2017-10-12T10:59:21Z</time>
      </trkpt>
      <trkpt lat="45.243" lon="5.63205">
        <ele>192.06</ele>
        <time>2017-10-12T10:59:26Z</time>
      </trkpt>
      <trkpt lat="45.24318" lon="5.63207">
        <ele>191.26</ele>
        <time>2017-10-12T10:59:32Z</time>
      </trkpt>
    </trkseg>
  </trk>
</gpx>